<?xml version="1.0" encoding="UTF-8" standalone="no" ?>
<gpx xmlns="http://www.topografix.com/GPX/1/1" xmlns:xsi="http://www.w3.org/2001/XMLSchema-instance" xsi:schemaLocation="http://www.topografix.com/GPX/1/1 http://www.topografix.com/GPX/1/1/gpx.xsd" version="1.1" creator="VisuGPX - https://www.visugpx.com">
  <metadata>
    <name>J3 Clermont &gt; Sète</name>
    <desc><![CDATA[



]]></desc>
  </metadata>
  <trk>
    <name><![CDATA[J3 Clermont > Sète]]></name>
    <desc><![CDATA[

]]></desc>
    <trkseg>
      <trkpt lat="43.62719" lon="3.43018">
        <ele>107.8</ele>
      </trkpt>
      <trkpt lat="43.62717" lon="3.43006">
        <ele>107.8</ele>
      </trkpt>
      <trkpt lat="43.62713" lon="3.43">
        <ele>107.7</ele>
      </trkpt>
      <trkpt lat="43.62689" lon="3.43019">
        <ele>106.1</ele>
      </trkpt>
      <trkpt lat="43.62688" lon="3.43047">
        <ele>104.9</ele>
      </trkpt>
      <trkpt lat="43.62672" lon="3.43059">
        <ele>103.2</ele>
      </trkpt>
      <trkpt lat="43.62661" lon="3.43101">
        <ele>102.1</ele>
      </trkpt>
      <trkpt lat="43.6265" lon="3.43145">
        <ele>102.3</ele>
      </trkpt>
      <trkpt lat="43.62649" lon="3.43195">
        <ele>100.9</ele>
      </trkpt>
      <trkpt lat="43.62616" lon="3.43251">
        <ele>100.8</ele>
      </trkpt>
      <trkpt lat="43.62561" lon="3.43334">
        <ele>99.8</ele>
      </trkpt>
      <trkpt lat="43.62532" lon="3.43328">
        <ele>101.7</ele>
      </trkpt>
      <trkpt lat="43.62439" lon="3.43479">
        <ele>103</ele>
      </trkpt>
      <trkpt lat="43.62363" lon="3.43593">
        <ele>104.4</ele>
      </trkpt>
      <trkpt lat="43.62255" lon="3.4363">
        <ele>109.7</ele>
      </trkpt>
      <trkpt lat="43.6213" lon="3.43655">
        <ele>112.4</ele>
      </trkpt>
      <trkpt lat="43.61959" lon="3.43658">
        <ele>110.5</ele>
      </trkpt>
      <trkpt lat="43.61939" lon="3.43683">
        <ele>107.6</ele>
      </trkpt>
      <trkpt lat="43.61903" lon="3.43696">
        <ele>107.9</ele>
      </trkpt>
      <trkpt lat="43.61797" lon="3.43662">
        <ele>111.9</ele>
      </trkpt>
      <trkpt lat="43.61623" lon="3.43675">
        <ele>115.6</ele>
      </trkpt>
      <trkpt lat="43.61309" lon="3.43685">
        <ele>124.5</ele>
      </trkpt>
      <trkpt lat="43.61275" lon="3.43673">
        <ele>123.9</ele>
      </trkpt>
      <trkpt lat="43.61131" lon="3.43434">
        <ele>129.9</ele>
      </trkpt>
      <trkpt lat="43.61059" lon="3.43323">
        <ele>136.5</ele>
      </trkpt>
      <trkpt lat="43.61012" lon="3.43263">
        <ele>139</ele>
      </trkpt>
      <trkpt lat="43.60972" lon="3.43239">
        <ele>139.5</ele>
      </trkpt>
      <trkpt lat="43.60939" lon="3.43214">
        <ele>138.4</ele>
      </trkpt>
      <trkpt lat="43.60887" lon="3.43184">
        <ele>136.6</ele>
      </trkpt>
      <trkpt lat="43.60758" lon="3.43095">
        <ele>132.3</ele>
      </trkpt>
      <trkpt lat="43.60746" lon="3.43073">
        <ele>133.5</ele>
      </trkpt>
      <trkpt lat="43.60735" lon="3.43073">
        <ele>132.7</ele>
      </trkpt>
      <trkpt lat="43.60705" lon="3.43101">
        <ele>129.5</ele>
      </trkpt>
      <trkpt lat="43.6062" lon="3.43308">
        <ele>115.6</ele>
      </trkpt>
      <trkpt lat="43.60613" lon="3.43338">
        <ele>114.9</ele>
      </trkpt>
      <trkpt lat="43.60529" lon="3.4334">
        <ele>110.5</ele>
      </trkpt>
      <trkpt lat="43.60354" lon="3.43361">
        <ele>106</ele>
      </trkpt>
      <trkpt lat="43.60301" lon="3.43383">
        <ele>103.3</ele>
      </trkpt>
      <trkpt lat="43.60253" lon="3.43364">
        <ele>102.9</ele>
      </trkpt>
      <trkpt lat="43.60111" lon="3.43342">
        <ele>105.1</ele>
      </trkpt>
      <trkpt lat="43.60073" lon="3.43364">
        <ele>104.4</ele>
      </trkpt>
      <trkpt lat="43.59955" lon="3.43398">
        <ele>101.4</ele>
      </trkpt>
      <trkpt lat="43.59899" lon="3.43387">
        <ele>98.4</ele>
      </trkpt>
      <trkpt lat="43.59824" lon="3.43361">
        <ele>95.7</ele>
      </trkpt>
      <trkpt lat="43.59762" lon="3.43331">
        <ele>93</ele>
      </trkpt>
      <trkpt lat="43.59686" lon="3.43241">
        <ele>88.9</ele>
      </trkpt>
      <trkpt lat="43.59619" lon="3.43173">
        <ele>86.4</ele>
      </trkpt>
      <trkpt lat="43.59519" lon="3.43067">
        <ele>84.3</ele>
      </trkpt>
      <trkpt lat="43.59417" lon="3.42999">
        <ele>81.94</ele>
        <time>2024-08-27T12:41:25.785Z</time>
      </trkpt>
      <trkpt lat="43.59413" lon="3.42997">
        <ele>81.51</ele>
        <time>2024-08-27T12:41:35.969Z</time>
      </trkpt>
      <trkpt lat="43.59406" lon="3.42993">
        <ele>81</ele>
        <time>2024-08-27T12:41:46.154Z</time>
      </trkpt>
      <trkpt lat="43.59379" lon="3.42978">
        <ele>80.26</ele>
        <time>2024-08-27T12:41:56.343Z</time>
      </trkpt>
      <trkpt lat="43.59347" lon="3.42943">
        <ele>79.46</ele>
        <time>2024-08-27T12:42:06.539Z</time>
      </trkpt>
      <trkpt lat="43.59334" lon="3.42933">
        <ele>78.82</ele>
        <time>2024-08-27T12:42:16.737Z</time>
      </trkpt>
      <trkpt lat="43.59274" lon="3.42901">
        <ele>78.11</ele>
        <time>2024-08-27T12:42:26.946Z</time>
      </trkpt>
      <trkpt lat="43.59262" lon="3.42897">
        <ele>77.76</ele>
        <time>2024-08-27T12:42:37.156Z</time>
      </trkpt>
      <trkpt lat="43.59255" lon="3.42897">
        <ele>77.62</ele>
        <time>2024-08-27T12:42:47.368Z</time>
      </trkpt>
      <trkpt lat="43.59242" lon="3.42902">
        <ele>77.77</ele>
        <time>2024-08-27T12:42:57.582Z</time>
      </trkpt>
      <trkpt lat="43.59211" lon="3.42934">
        <ele>78.2</ele>
        <time>2024-08-27T12:43:07.802Z</time>
      </trkpt>
      <trkpt lat="43.59196" lon="3.42942">
        <ele>78.72</ele>
        <time>2024-08-27T12:43:18.025Z</time>
      </trkpt>
      <trkpt lat="43.59186" lon="3.42943">
        <ele>79.16</ele>
        <time>2024-08-27T12:43:28.249Z</time>
      </trkpt>
      <trkpt lat="43.59175" lon="3.42941">
        <ele>79.78</ele>
        <time>2024-08-27T12:43:38.475Z</time>
      </trkpt>
      <trkpt lat="43.5913" lon="3.42921">
        <ele>80.7</ele>
        <time>2024-08-27T12:43:48.708Z</time>
      </trkpt>
      <trkpt lat="43.59119" lon="3.42919">
        <ele>81.74</ele>
        <time>2024-08-27T12:43:58.943Z</time>
      </trkpt>
      <trkpt lat="43.59111" lon="3.4292">
        <ele>83.03</ele>
        <time>2024-08-27T12:44:09.180Z</time>
      </trkpt>
      <trkpt lat="43.59101" lon="3.42926">
        <ele>84.77</ele>
        <time>2024-08-27T12:44:19.418Z</time>
      </trkpt>
      <trkpt lat="43.59079" lon="3.42944">
        <ele>87.14</ele>
        <time>2024-08-27T12:44:29.660Z</time>
      </trkpt>
      <trkpt lat="43.58946" lon="3.4306">
        <ele>90.24</ele>
        <time>2024-08-27T12:44:39.928Z</time>
      </trkpt>
      <trkpt lat="43.58934" lon="3.43071">
        <ele>91.74</ele>
        <time>2024-08-27T12:44:50.198Z</time>
      </trkpt>
      <trkpt lat="43.58929" lon="3.43076">
        <ele>96.09</ele>
        <time>2024-08-27T12:45:00.469Z</time>
      </trkpt>
      <trkpt lat="43.58912" lon="3.43094">
        <ele>97.56</ele>
        <time>2024-08-27T12:45:10.743Z</time>
      </trkpt>
      <trkpt lat="43.58866" lon="3.43158">
        <ele>99.05</ele>
        <time>2024-08-27T12:45:21.028Z</time>
      </trkpt>
      <trkpt lat="43.58859" lon="3.43166">
        <ele>100.29</ele>
        <time>2024-08-27T12:45:31.314Z</time>
      </trkpt>
      <trkpt lat="43.58854" lon="3.43168">
        <ele>101.53</ele>
        <time>2024-08-27T12:45:41.601Z</time>
      </trkpt>
      <trkpt lat="43.58845" lon="3.43168">
        <ele>102.88</ele>
        <time>2024-08-27T12:45:51.890Z</time>
      </trkpt>
      <trkpt lat="43.5884" lon="3.43163">
        <ele>104.39</ele>
        <time>2024-08-27T12:46:02.180Z</time>
      </trkpt>
      <trkpt lat="43.58837" lon="3.43158">
        <ele>106.03</ele>
        <time>2024-08-27T12:46:12.470Z</time>
      </trkpt>
      <trkpt lat="43.58837" lon="3.43146">
        <ele>107.9</ele>
        <time>2024-08-27T12:46:22.762Z</time>
      </trkpt>
      <trkpt lat="43.58843" lon="3.4313">
        <ele>109.95</ele>
        <time>2024-08-27T12:46:33.056Z</time>
      </trkpt>
      <trkpt lat="43.5892" lon="3.4295">
        <ele>112.66</ele>
        <time>2024-08-27T12:46:43.374Z</time>
      </trkpt>
      <trkpt lat="43.58937" lon="3.42918">
        <ele>115.13</ele>
        <time>2024-08-27T12:46:53.697Z</time>
      </trkpt>
      <trkpt lat="43.58937" lon="3.42918">
        <ele>117.21</ele>
        <time>2024-08-27T12:47:04.020Z</time>
      </trkpt>
      <trkpt lat="43.58954" lon="3.42883">
        <ele>119.53</ele>
        <time>2024-08-27T12:47:14.348Z</time>
      </trkpt>
      <trkpt lat="43.5899" lon="3.4277">
        <ele>121.9</ele>
        <time>2024-08-27T12:47:24.690Z</time>
      </trkpt>
      <trkpt lat="43.58994" lon="3.42744">
        <ele>123.78</ele>
        <time>2024-08-27T12:47:35.035Z</time>
      </trkpt>
      <trkpt lat="43.58993" lon="3.42727">
        <ele>125.51</ele>
        <time>2024-08-27T12:47:45.382Z</time>
      </trkpt>
      <trkpt lat="43.58988" lon="3.42719">
        <ele>127.29</ele>
        <time>2024-08-27T12:47:55.730Z</time>
      </trkpt>
      <trkpt lat="43.5898" lon="3.42711">
        <ele>129.07</ele>
        <time>2024-08-27T12:48:06.080Z</time>
      </trkpt>
      <trkpt lat="43.58957" lon="3.42694">
        <ele>130.82</ele>
        <time>2024-08-27T12:48:16.434Z</time>
      </trkpt>
      <trkpt lat="43.58945" lon="3.42679">
        <ele>132.37</ele>
        <time>2024-08-27T12:48:26.791Z</time>
      </trkpt>
      <trkpt lat="43.5894" lon="3.42668">
        <ele>133.75</ele>
        <time>2024-08-27T12:48:37.149Z</time>
      </trkpt>
      <trkpt lat="43.58933" lon="3.42562">
        <ele>135.12</ele>
        <time>2024-08-27T12:48:47.519Z</time>
      </trkpt>
      <trkpt lat="43.58928" lon="3.42544">
        <ele>136.23</ele>
        <time>2024-08-27T12:48:57.892Z</time>
      </trkpt>
      <trkpt lat="43.5892" lon="3.42528">
        <ele>137.07</ele>
        <time>2024-08-27T12:49:08.267Z</time>
      </trkpt>
      <trkpt lat="43.58902" lon="3.42515">
        <ele>137.63</ele>
        <time>2024-08-27T12:49:18.645Z</time>
      </trkpt>
      <trkpt lat="43.58748" lon="3.42449">
        <ele>138.33</ele>
        <time>2024-08-27T12:49:29.049Z</time>
      </trkpt>
      <trkpt lat="43.58731" lon="3.42437">
        <ele>137.31</ele>
        <time>2024-08-27T12:49:39.456Z</time>
      </trkpt>
      <trkpt lat="43.58722" lon="3.42425">
        <ele>136.02</ele>
        <time>2024-08-27T12:49:49.865Z</time>
      </trkpt>
      <trkpt lat="43.58708" lon="3.42401">
        <ele>134.17</ele>
        <time>2024-08-27T12:50:00.278Z</time>
      </trkpt>
      <trkpt lat="43.58649" lon="3.42271">
        <ele>131.79</ele>
        <time>2024-08-27T12:50:10.708Z</time>
      </trkpt>
      <trkpt lat="43.58647" lon="3.42265">
        <ele>129.58</ele>
        <time>2024-08-27T12:50:21.139Z</time>
      </trkpt>
      <trkpt lat="43.58569" lon="3.42095">
        <ele>126.07</ele>
        <time>2024-08-27T12:50:31.593Z</time>
      </trkpt>
      <trkpt lat="43.58559" lon="3.42081">
        <ele>124.18</ele>
        <time>2024-08-27T12:50:42.050Z</time>
      </trkpt>
      <trkpt lat="43.58542" lon="3.42064">
        <ele>122.21</ele>
        <time>2024-08-27T12:50:52.510Z</time>
      </trkpt>
      <trkpt lat="43.58495" lon="3.42031">
        <ele>119.96</ele>
        <time>2024-08-27T12:51:02.979Z</time>
      </trkpt>
      <trkpt lat="43.58449" lon="3.42001">
        <ele>117.8</ele>
        <time>2024-08-27T12:51:13.456Z</time>
      </trkpt>
      <trkpt lat="43.58406" lon="3.41974">
        <ele>112.14</ele>
        <time>2024-08-27T12:51:23.940Z</time>
      </trkpt>
      <trkpt lat="43.58333" lon="3.42257">
        <ele>109</ele>
        <time>2024-08-27T12:51:34.459Z</time>
      </trkpt>
      <trkpt lat="43.5829" lon="3.4236">
        <ele>107.8</ele>
        <time>2024-08-27T12:51:44.992Z</time>
      </trkpt>
      <trkpt lat="43.58208" lon="3.42479">
        <ele>107.36</ele>
        <time>2024-08-27T12:51:55.544Z</time>
      </trkpt>
      <trkpt lat="43.58065" lon="3.42736">
        <ele>124.79</ele>
        <time>2024-08-27T12:52:06.134Z</time>
      </trkpt>
      <trkpt lat="43.58065" lon="3.42736">
        <ele>124.81</ele>
        <time>2024-08-27T12:52:16.724Z</time>
      </trkpt>
      <trkpt lat="43.57998" lon="3.42885">
        <ele>116.08</ele>
        <time>2024-08-27T12:52:27.334Z</time>
      </trkpt>
      <trkpt lat="43.57997" lon="3.42899">
        <ele>115.56</ele>
        <time>2024-08-27T12:52:37.946Z</time>
      </trkpt>
      <trkpt lat="43.57997" lon="3.42899">
        <ele>116.04</ele>
        <time>2024-08-27T12:52:48.558Z</time>
      </trkpt>
      <trkpt lat="43.57988" lon="3.42961">
        <ele>115.96</ele>
        <time>2024-08-27T12:52:59.177Z</time>
      </trkpt>
      <trkpt lat="43.57976" lon="3.42985">
        <ele>116.06</ele>
        <time>2024-08-27T12:53:09.799Z</time>
      </trkpt>
      <trkpt lat="43.57833" lon="3.43107">
        <ele>117.07</ele>
        <time>2024-08-27T12:53:20.448Z</time>
      </trkpt>
      <trkpt lat="43.57799" lon="3.43132">
        <ele>117.92</ele>
        <time>2024-08-27T12:53:31.104Z</time>
      </trkpt>
      <trkpt lat="43.57786" lon="3.43147">
        <ele>118.57</ele>
        <time>2024-08-27T12:53:41.762Z</time>
      </trkpt>
      <trkpt lat="43.57769" lon="3.43183">
        <ele>118.83</ele>
        <time>2024-08-27T12:53:52.425Z</time>
      </trkpt>
      <trkpt lat="43.57769" lon="3.43183">
        <ele>118.83</ele>
        <time>2024-08-27T12:54:03.088Z</time>
      </trkpt>
      <trkpt lat="43.5774" lon="3.43244">
        <ele>117.92</ele>
        <time>2024-08-27T12:54:13.760Z</time>
      </trkpt>
      <trkpt lat="43.5772" lon="3.43306">
        <ele>117.62</ele>
        <time>2024-08-27T12:54:24.440Z</time>
      </trkpt>
      <trkpt lat="43.57666" lon="3.43478">
        <ele>117.46</ele>
        <time>2024-08-27T12:54:35.141Z</time>
      </trkpt>
      <trkpt lat="43.57661" lon="3.43489">
        <ele>117.48</ele>
        <time>2024-08-27T12:54:45.844Z</time>
      </trkpt>
      <trkpt lat="43.57653" lon="3.43497">
        <ele>117.63</ele>
        <time>2024-08-27T12:54:56.548Z</time>
      </trkpt>
      <trkpt lat="43.57594" lon="3.43541">
        <ele>117.93</ele>
        <time>2024-08-27T12:55:07.263Z</time>
      </trkpt>
      <trkpt lat="43.57578" lon="3.43566">
        <ele>117.81</ele>
        <time>2024-08-27T12:55:17.982Z</time>
      </trkpt>
      <trkpt lat="43.57565" lon="3.43598">
        <ele>117.42</ele>
        <time>2024-08-27T12:55:28.705Z</time>
      </trkpt>
      <trkpt lat="43.57533" lon="3.43695">
        <ele>117.04</ele>
        <time>2024-08-27T12:55:39.441Z</time>
      </trkpt>
      <trkpt lat="43.57501" lon="3.43789">
        <ele>116.9</ele>
        <time>2024-08-27T12:55:50.189Z</time>
      </trkpt>
      <trkpt lat="43.57465" lon="3.4388">
        <ele>116.43</ele>
        <time>2024-08-27T12:56:00.949Z</time>
      </trkpt>
      <trkpt lat="43.57451" lon="3.43897">
        <ele>115.61</ele>
        <time>2024-08-27T12:56:11.712Z</time>
      </trkpt>
      <trkpt lat="43.57424" lon="3.4392">
        <ele>114.13</ele>
        <time>2024-08-27T12:56:22.480Z</time>
      </trkpt>
      <trkpt lat="43.57311" lon="3.44031">
        <ele>112.77</ele>
        <time>2024-08-27T12:56:33.270Z</time>
      </trkpt>
      <trkpt lat="43.57293" lon="3.44052">
        <ele>112.14</ele>
        <time>2024-08-27T12:56:44.064Z</time>
      </trkpt>
      <trkpt lat="43.57284" lon="3.44064">
        <ele>111.66</ele>
        <time>2024-08-27T12:56:54.860Z</time>
      </trkpt>
      <trkpt lat="43.57282" lon="3.44066">
        <ele>112.25</ele>
        <time>2024-08-27T12:57:05.656Z</time>
      </trkpt>
      <trkpt lat="43.5726" lon="3.44092">
        <ele>111.26</ele>
        <time>2024-08-27T12:57:16.457Z</time>
      </trkpt>
      <trkpt lat="43.57247" lon="3.44095">
        <ele>110.29</ele>
        <time>2024-08-27T12:57:27.260Z</time>
      </trkpt>
      <trkpt lat="43.57238" lon="3.44094">
        <ele>109.3</ele>
        <time>2024-08-27T12:57:38.065Z</time>
      </trkpt>
      <trkpt lat="43.57205" lon="3.44081">
        <ele>108.18</ele>
        <time>2024-08-27T12:57:48.875Z</time>
      </trkpt>
      <trkpt lat="43.572" lon="3.44081">
        <ele>106.93</ele>
        <time>2024-08-27T12:57:59.686Z</time>
      </trkpt>
      <trkpt lat="43.572" lon="3.44081">
        <ele>105.55</ele>
        <time>2024-08-27T12:58:10.497Z</time>
      </trkpt>
      <trkpt lat="43.57192" lon="3.44086">
        <ele>103.95</ele>
        <time>2024-08-27T12:58:21.309Z</time>
      </trkpt>
      <trkpt lat="43.57179" lon="3.44096">
        <ele>102.11</ele>
        <time>2024-08-27T12:58:32.124Z</time>
      </trkpt>
      <trkpt lat="43.5714" lon="3.44147">
        <ele>99.79</ele>
        <time>2024-08-27T12:58:42.947Z</time>
      </trkpt>
      <trkpt lat="43.57131" lon="3.44168">
        <ele>97.51</ele>
        <time>2024-08-27T12:58:53.773Z</time>
      </trkpt>
      <trkpt lat="43.57119" lon="3.44201">
        <ele>95</ele>
        <time>2024-08-27T12:59:04.603Z</time>
      </trkpt>
      <trkpt lat="43.57024" lon="3.44366">
        <ele>92.11</ele>
        <time>2024-08-27T12:59:15.458Z</time>
      </trkpt>
      <trkpt lat="43.56955" lon="3.44537">
        <ele>88.65</ele>
        <time>2024-08-27T12:59:26.336Z</time>
      </trkpt>
      <trkpt lat="43.56861" lon="3.44768">
        <ele>85.33</ele>
        <time>2024-08-27T12:59:37.244Z</time>
      </trkpt>
      <trkpt lat="43.56844" lon="3.44816">
        <ele>82.89</ele>
        <time>2024-08-27T12:59:48.159Z</time>
      </trkpt>
      <trkpt lat="43.56835" lon="3.44828">
        <ele>80.86</ele>
        <time>2024-08-27T12:59:59.076Z</time>
      </trkpt>
      <trkpt lat="43.56814" lon="3.44849">
        <ele>79.16</ele>
        <time>2024-08-27T13:00:09.997Z</time>
      </trkpt>
      <trkpt lat="43.56774" lon="3.44884">
        <ele>77.83</ele>
        <time>2024-08-27T13:00:20.925Z</time>
      </trkpt>
      <trkpt lat="43.56741" lon="3.44912">
        <ele>76.7</ele>
        <time>2024-08-27T13:00:31.860Z</time>
      </trkpt>
      <trkpt lat="43.56721" lon="3.44918">
        <ele>75.86</ele>
        <time>2024-08-27T13:00:42.798Z</time>
      </trkpt>
      <trkpt lat="43.56712" lon="3.44923">
        <ele>75.24</ele>
        <time>2024-08-27T13:00:53.737Z</time>
      </trkpt>
      <trkpt lat="43.56701" lon="3.44939">
        <ele>74.77</ele>
        <time>2024-08-27T13:01:04.679Z</time>
      </trkpt>
      <trkpt lat="43.56688" lon="3.44944">
        <ele>74.35</ele>
        <time>2024-08-27T13:01:15.623Z</time>
      </trkpt>
      <trkpt lat="43.56684" lon="3.44932">
        <ele>74.03</ele>
        <time>2024-08-27T13:01:26.569Z</time>
      </trkpt>
      <trkpt lat="43.56668" lon="3.44911">
        <ele>73.71</ele>
        <time>2024-08-27T13:01:37.518Z</time>
      </trkpt>
      <trkpt lat="43.56629" lon="3.4487">
        <ele>73.2</ele>
        <time>2024-08-27T13:01:48.475Z</time>
      </trkpt>
      <trkpt lat="43.56614" lon="3.44858">
        <ele>72.79</ele>
        <time>2024-08-27T13:01:59.435Z</time>
      </trkpt>
      <trkpt lat="43.56606" lon="3.44851">
        <ele>72.37</ele>
        <time>2024-08-27T13:02:10.396Z</time>
      </trkpt>
      <trkpt lat="43.56604" lon="3.44849">
        <ele>72.02</ele>
        <time>2024-08-27T13:02:21.358Z</time>
      </trkpt>
      <trkpt lat="43.56586" lon="3.44832">
        <ele>71.48</ele>
        <time>2024-08-27T13:02:32.323Z</time>
      </trkpt>
      <trkpt lat="43.56564" lon="3.44816">
        <ele>71.11</ele>
        <time>2024-08-27T13:02:43.292Z</time>
      </trkpt>
      <trkpt lat="43.56552" lon="3.4481">
        <ele>70.84</ele>
        <time>2024-08-27T13:02:54.263Z</time>
      </trkpt>
      <trkpt lat="43.56547" lon="3.4481">
        <ele>70.63</ele>
        <time>2024-08-27T13:03:05.235Z</time>
      </trkpt>
      <trkpt lat="43.56539" lon="3.44813">
        <ele>70.43</ele>
        <time>2024-08-27T13:03:16.208Z</time>
      </trkpt>
      <trkpt lat="43.56534" lon="3.44818">
        <ele>70.31</ele>
        <time>2024-08-27T13:03:27.182Z</time>
      </trkpt>
      <trkpt lat="43.56522" lon="3.44849">
        <ele>70.24</ele>
        <time>2024-08-27T13:03:38.160Z</time>
      </trkpt>
      <trkpt lat="43.56516" lon="3.44867">
        <ele>70.03</ele>
        <time>2024-08-27T13:03:49.141Z</time>
      </trkpt>
      <trkpt lat="43.56506" lon="3.44886">
        <ele>69.76</ele>
        <time>2024-08-27T13:04:00.124Z</time>
      </trkpt>
      <trkpt lat="43.56501" lon="3.44892">
        <ele>69.49</ele>
        <time>2024-08-27T13:04:11.109Z</time>
      </trkpt>
      <trkpt lat="43.56477" lon="3.44899">
        <ele>69.18</ele>
        <time>2024-08-27T13:04:22.097Z</time>
      </trkpt>
      <trkpt lat="43.56461" lon="3.44899">
        <ele>68.87</ele>
        <time>2024-08-27T13:04:33.088Z</time>
      </trkpt>
      <trkpt lat="43.5645" lon="3.44892">
        <ele>68.62</ele>
        <time>2024-08-27T13:04:44.081Z</time>
      </trkpt>
      <trkpt lat="43.56441" lon="3.44885">
        <ele>68.37</ele>
        <time>2024-08-27T13:04:55.076Z</time>
      </trkpt>
      <trkpt lat="43.56427" lon="3.44881">
        <ele>68.07</ele>
        <time>2024-08-27T13:05:06.073Z</time>
      </trkpt>
      <trkpt lat="43.56413" lon="3.44878">
        <ele>67.86</ele>
        <time>2024-08-27T13:05:17.072Z</time>
      </trkpt>
      <trkpt lat="43.56397" lon="3.44882">
        <ele>67.79</ele>
        <time>2024-08-27T13:05:28.074Z</time>
      </trkpt>
      <trkpt lat="43.5637" lon="3.44888">
        <ele>67.85</ele>
        <time>2024-08-27T13:05:39.080Z</time>
      </trkpt>
      <trkpt lat="43.5633" lon="3.44902">
        <ele>68.33</ele>
        <time>2024-08-27T13:05:50.093Z</time>
      </trkpt>
      <trkpt lat="43.56321" lon="3.44906">
        <ele>68.81</ele>
        <time>2024-08-27T13:06:01.107Z</time>
      </trkpt>
      <trkpt lat="43.56266" lon="3.4493">
        <ele>69.5</ele>
        <time>2024-08-27T13:06:12.130Z</time>
      </trkpt>
      <trkpt lat="43.56261" lon="3.44932">
        <ele>69.98</ele>
        <time>2024-08-27T13:06:23.154Z</time>
      </trkpt>
      <trkpt lat="43.56262" lon="3.44932">
        <ele>70.64</ele>
        <time>2024-08-27T13:06:34.178Z</time>
      </trkpt>
      <trkpt lat="43.56162" lon="3.44976">
        <ele>71.61</ele>
        <time>2024-08-27T13:06:45.219Z</time>
      </trkpt>
      <trkpt lat="43.56145" lon="3.44988">
        <ele>72.59</ele>
        <time>2024-08-27T13:06:56.263Z</time>
      </trkpt>
      <trkpt lat="43.56113" lon="3.45005">
        <ele>73.55</ele>
        <time>2024-08-27T13:07:07.312Z</time>
      </trkpt>
      <trkpt lat="43.56111" lon="3.45006">
        <ele>74.44</ele>
        <time>2024-08-27T13:07:18.362Z</time>
      </trkpt>
      <trkpt lat="43.56064" lon="3.45031">
        <ele>75.7</ele>
        <time>2024-08-27T13:07:29.420Z</time>
      </trkpt>
      <trkpt lat="43.56019" lon="3.45054">
        <ele>78.21</ele>
        <time>2024-08-27T13:07:40.486Z</time>
      </trkpt>
      <trkpt lat="43.55975" lon="3.45074">
        <ele>77.85</ele>
        <time>2024-08-27T13:07:51.559Z</time>
      </trkpt>
      <trkpt lat="43.55939" lon="3.4508">
        <ele>76.79</ele>
        <time>2024-08-27T13:08:02.638Z</time>
      </trkpt>
      <trkpt lat="43.5584" lon="3.4509">
        <ele>74.9</ele>
        <time>2024-08-27T13:08:13.733Z</time>
      </trkpt>
      <trkpt lat="43.55721" lon="3.45103">
        <ele>73.17</ele>
        <time>2024-08-27T13:08:24.847Z</time>
      </trkpt>
      <trkpt lat="43.55639" lon="3.45106">
        <ele>71.5</ele>
        <time>2024-08-27T13:08:35.974Z</time>
      </trkpt>
      <trkpt lat="43.55578" lon="3.45099">
        <ele>70.14</ele>
        <time>2024-08-27T13:08:47.111Z</time>
      </trkpt>
      <trkpt lat="43.55524" lon="3.45101">
        <ele>68.71</ele>
        <time>2024-08-27T13:08:58.256Z</time>
      </trkpt>
      <trkpt lat="43.55441" lon="3.45116">
        <ele>66.94</ele>
        <time>2024-08-27T13:09:09.415Z</time>
      </trkpt>
      <trkpt lat="43.55302" lon="3.45151">
        <ele>64.34</ele>
        <time>2024-08-27T13:09:20.596Z</time>
      </trkpt>
      <trkpt lat="43.55255" lon="3.45181">
        <ele>62.34</ele>
        <time>2024-08-27T13:09:31.786Z</time>
      </trkpt>
      <trkpt lat="43.55201" lon="3.45227">
        <ele>60.54</ele>
        <time>2024-08-27T13:09:42.986Z</time>
      </trkpt>
      <trkpt lat="43.55161" lon="3.45278">
        <ele>59.03</ele>
        <time>2024-08-27T13:09:54.194Z</time>
      </trkpt>
      <trkpt lat="43.55156" lon="3.45283">
        <ele>57.11</ele>
        <time>2024-08-27T13:10:05.403Z</time>
      </trkpt>
      <trkpt lat="43.55149" lon="3.45293">
        <ele>56.45</ele>
        <time>2024-08-27T13:10:16.614Z</time>
      </trkpt>
      <trkpt lat="43.55125" lon="3.45324">
        <ele>56.13</ele>
        <time>2024-08-27T13:10:27.830Z</time>
      </trkpt>
      <trkpt lat="43.55116" lon="3.45338">
        <ele>55.74</ele>
        <time>2024-08-27T13:10:39.048Z</time>
      </trkpt>
      <trkpt lat="43.55052" lon="3.45417">
        <ele>54.78</ele>
        <time>2024-08-27T13:10:50.280Z</time>
      </trkpt>
      <trkpt lat="43.55019" lon="3.45452">
        <ele>54.39</ele>
        <time>2024-08-27T13:11:01.519Z</time>
      </trkpt>
      <trkpt lat="43.54999" lon="3.45465">
        <ele>53.89</ele>
        <time>2024-08-27T13:11:12.762Z</time>
      </trkpt>
      <trkpt lat="43.54989" lon="3.45466">
        <ele>53.31</ele>
        <time>2024-08-27T13:11:24.006Z</time>
      </trkpt>
      <trkpt lat="43.54978" lon="3.45462">
        <ele>52.66</ele>
        <time>2024-08-27T13:11:35.252Z</time>
      </trkpt>
      <trkpt lat="43.54944" lon="3.45444">
        <ele>51.93</ele>
        <time>2024-08-27T13:11:46.504Z</time>
      </trkpt>
      <trkpt lat="43.54933" lon="3.4544">
        <ele>51.38</ele>
        <time>2024-08-27T13:11:57.758Z</time>
      </trkpt>
      <trkpt lat="43.54919" lon="3.45441">
        <ele>50.81</ele>
        <time>2024-08-27T13:12:09.014Z</time>
      </trkpt>
      <trkpt lat="43.54919" lon="3.45441">
        <ele>50.42</ele>
        <time>2024-08-27T13:12:20.270Z</time>
      </trkpt>
      <trkpt lat="43.54899" lon="3.45456">
        <ele>50.06</ele>
        <time>2024-08-27T13:12:31.529Z</time>
      </trkpt>
      <trkpt lat="43.54857" lon="3.45492">
        <ele>49.78</ele>
        <time>2024-08-27T13:12:42.796Z</time>
      </trkpt>
      <trkpt lat="43.54793" lon="3.45556">
        <ele>49.36</ele>
        <time>2024-08-27T13:12:54.076Z</time>
      </trkpt>
      <trkpt lat="43.54758" lon="3.45587">
        <ele>49.03</ele>
        <time>2024-08-27T13:13:05.363Z</time>
      </trkpt>
      <trkpt lat="43.54669" lon="3.45656">
        <ele>48.66</ele>
        <time>2024-08-27T13:13:16.666Z</time>
      </trkpt>
      <trkpt lat="43.546" lon="3.45708">
        <ele>49.02</ele>
        <time>2024-08-27T13:13:27.982Z</time>
      </trkpt>
      <trkpt lat="43.54558" lon="3.45731">
        <ele>50.23</ele>
        <time>2024-08-27T13:13:39.305Z</time>
      </trkpt>
      <trkpt lat="43.54541" lon="3.45735">
        <ele>51.19</ele>
        <time>2024-08-27T13:13:50.631Z</time>
      </trkpt>
      <trkpt lat="43.54487" lon="3.45737">
        <ele>52.37</ele>
        <time>2024-08-27T13:14:01.965Z</time>
      </trkpt>
      <trkpt lat="43.54477" lon="3.45738">
        <ele>53.93</ele>
        <time>2024-08-27T13:14:13.301Z</time>
      </trkpt>
      <trkpt lat="43.54477" lon="3.45738">
        <ele>53.24</ele>
        <time>2024-08-27T13:14:24.637Z</time>
      </trkpt>
      <trkpt lat="43.54467" lon="3.45738">
        <ele>52.27</ele>
        <time>2024-08-27T13:14:35.975Z</time>
      </trkpt>
      <trkpt lat="43.54426" lon="3.45746">
        <ele>50.93</ele>
        <time>2024-08-27T13:14:47.319Z</time>
      </trkpt>
      <trkpt lat="43.54406" lon="3.45756">
        <ele>49.71</ele>
        <time>2024-08-27T13:14:58.666Z</time>
      </trkpt>
      <trkpt lat="43.54359" lon="3.45798">
        <ele>48.21</ele>
        <time>2024-08-27T13:15:10.022Z</time>
      </trkpt>
      <trkpt lat="43.54326" lon="3.45821">
        <ele>46.97</ele>
        <time>2024-08-27T13:15:21.384Z</time>
      </trkpt>
      <trkpt lat="43.54372" lon="3.4593">
        <ele>44.02</ele>
        <time>2024-08-27T13:15:32.761Z</time>
      </trkpt>
      <trkpt lat="43.54372" lon="3.4593">
        <ele>42.91</ele>
        <time>2024-08-27T13:15:44.138Z</time>
      </trkpt>
      <trkpt lat="43.54402" lon="3.46001">
        <ele>41.81</ele>
        <time>2024-08-27T13:15:55.525Z</time>
      </trkpt>
      <trkpt lat="43.54406" lon="3.46017">
        <ele>41.02</ele>
        <time>2024-08-27T13:16:06.914Z</time>
      </trkpt>
      <trkpt lat="43.54405" lon="3.46035">
        <ele>40.24</ele>
        <time>2024-08-27T13:16:18.305Z</time>
      </trkpt>
      <trkpt lat="43.54403" lon="3.46041">
        <ele>39.53</ele>
        <time>2024-08-27T13:16:29.697Z</time>
      </trkpt>
      <trkpt lat="43.5434" lon="3.46114">
        <ele>38.66</ele>
        <time>2024-08-27T13:16:41.102Z</time>
      </trkpt>
      <trkpt lat="43.54266" lon="3.46206">
        <ele>37.98</ele>
        <time>2024-08-27T13:16:52.523Z</time>
      </trkpt>
      <trkpt lat="43.54256" lon="3.46198">
        <ele>37.43</ele>
        <time>2024-08-27T13:17:03.945Z</time>
      </trkpt>
      <trkpt lat="43.54248" lon="3.46215">
        <ele>36.93</ele>
        <time>2024-08-27T13:17:15.370Z</time>
      </trkpt>
      <trkpt lat="43.54175" lon="3.46331">
        <ele>36.31</ele>
        <time>2024-08-27T13:17:26.813Z</time>
      </trkpt>
      <trkpt lat="43.54157" lon="3.46353">
        <ele>35.78</ele>
        <time>2024-08-27T13:17:38.260Z</time>
      </trkpt>
      <trkpt lat="43.54149" lon="3.46362">
        <ele>35.33</ele>
        <time>2024-08-27T13:17:49.708Z</time>
      </trkpt>
      <trkpt lat="43.54147" lon="3.46365">
        <ele>34.97</ele>
        <time>2024-08-27T13:18:01.157Z</time>
      </trkpt>
      <trkpt lat="43.54141" lon="3.46374">
        <ele>34.65</ele>
        <time>2024-08-27T13:18:12.607Z</time>
      </trkpt>
      <trkpt lat="43.54138" lon="3.46378">
        <ele>34.36</ele>
        <time>2024-08-27T13:18:24.058Z</time>
      </trkpt>
      <trkpt lat="43.54117" lon="3.46415">
        <ele>33.98</ele>
        <time>2024-08-27T13:18:35.514Z</time>
      </trkpt>
      <trkpt lat="43.54108" lon="3.46439">
        <ele>33.74</ele>
        <time>2024-08-27T13:18:46.973Z</time>
      </trkpt>
      <trkpt lat="43.54095" lon="3.46493">
        <ele>33.41</ele>
        <time>2024-08-27T13:18:58.439Z</time>
      </trkpt>
      <trkpt lat="43.54091" lon="3.46512">
        <ele>33.24</ele>
        <time>2024-08-27T13:19:09.907Z</time>
      </trkpt>
      <trkpt lat="43.54075" lon="3.4656">
        <ele>33.15</ele>
        <time>2024-08-27T13:19:21.381Z</time>
      </trkpt>
      <trkpt lat="43.54032" lon="3.4667">
        <ele>32.7</ele>
        <time>2024-08-27T13:19:32.870Z</time>
      </trkpt>
      <trkpt lat="43.54032" lon="3.4667">
        <ele>32.36</ele>
        <time>2024-08-27T13:19:44.359Z</time>
      </trkpt>
      <trkpt lat="43.54007" lon="3.46744">
        <ele>31.84</ele>
        <time>2024-08-27T13:19:55.857Z</time>
      </trkpt>
      <trkpt lat="43.53982" lon="3.46829">
        <ele>31.08</ele>
        <time>2024-08-27T13:20:07.366Z</time>
      </trkpt>
      <trkpt lat="43.53965" lon="3.46894">
        <ele>30.54</ele>
        <time>2024-08-27T13:20:18.883Z</time>
      </trkpt>
      <trkpt lat="43.53961" lon="3.46909">
        <ele>29.25</ele>
        <time>2024-08-27T13:20:30.402Z</time>
      </trkpt>
      <trkpt lat="43.53937" lon="3.46974">
        <ele>28.85</ele>
        <time>2024-08-27T13:20:41.929Z</time>
      </trkpt>
      <trkpt lat="43.53937" lon="3.46974">
        <ele>28.44</ele>
        <time>2024-08-27T13:20:53.456Z</time>
      </trkpt>
      <trkpt lat="43.53923" lon="3.47013">
        <ele>27.86</ele>
        <time>2024-08-27T13:21:04.989Z</time>
      </trkpt>
      <trkpt lat="43.53914" lon="3.47051">
        <ele>27.39</ele>
        <time>2024-08-27T13:21:16.526Z</time>
      </trkpt>
      <trkpt lat="43.53909" lon="3.47113">
        <ele>26.7</ele>
        <time>2024-08-27T13:21:28.070Z</time>
      </trkpt>
      <trkpt lat="43.53898" lon="3.4726">
        <ele>25.66</ele>
        <time>2024-08-27T13:21:39.632Z</time>
      </trkpt>
      <trkpt lat="43.53898" lon="3.4726">
        <ele>25.02</ele>
        <time>2024-08-27T13:21:51.194Z</time>
      </trkpt>
      <trkpt lat="43.53889" lon="3.47386">
        <ele>24.17</ele>
        <time>2024-08-27T13:22:02.770Z</time>
      </trkpt>
      <trkpt lat="43.53872" lon="3.47626">
        <ele>23.82</ele>
        <time>2024-08-27T13:22:14.374Z</time>
      </trkpt>
      <trkpt lat="43.53868" lon="3.47672">
        <ele>23.37</ele>
        <time>2024-08-27T13:22:25.984Z</time>
      </trkpt>
      <trkpt lat="43.53866" lon="3.47686">
        <ele>23.18</ele>
        <time>2024-08-27T13:22:37.596Z</time>
      </trkpt>
      <trkpt lat="43.53851" lon="3.47757">
        <ele>23.25</ele>
        <time>2024-08-27T13:22:49.216Z</time>
      </trkpt>
      <trkpt lat="43.53841" lon="3.4779">
        <ele>23.02</ele>
        <time>2024-08-27T13:23:00.840Z</time>
      </trkpt>
      <trkpt lat="43.53841" lon="3.4779">
        <ele>23.05</ele>
        <time>2024-08-27T13:23:12.464Z</time>
      </trkpt>
      <trkpt lat="43.53804" lon="3.4794">
        <ele>23.31</ele>
        <time>2024-08-27T13:23:24.107Z</time>
      </trkpt>
      <trkpt lat="43.5379" lon="3.47999">
        <ele>23.37</ele>
        <time>2024-08-27T13:23:35.757Z</time>
      </trkpt>
      <trkpt lat="43.53783" lon="3.48034">
        <ele>23.5</ele>
        <time>2024-08-27T13:23:47.411Z</time>
      </trkpt>
      <trkpt lat="43.53779" lon="3.4808">
        <ele>23.47</ele>
        <time>2024-08-27T13:23:59.071Z</time>
      </trkpt>
      <trkpt lat="43.53779" lon="3.4808">
        <ele>23.33</ele>
        <time>2024-08-27T13:24:10.731Z</time>
      </trkpt>
      <trkpt lat="43.53778" lon="3.48135">
        <ele>22.99</ele>
        <time>2024-08-27T13:24:22.397Z</time>
      </trkpt>
      <trkpt lat="43.53809" lon="3.48473">
        <ele>22.51</ele>
        <time>2024-08-27T13:24:34.103Z</time>
      </trkpt>
      <trkpt lat="43.53806" lon="3.48505">
        <ele>22.25</ele>
        <time>2024-08-27T13:24:45.812Z</time>
      </trkpt>
      <trkpt lat="43.53801" lon="3.48522">
        <ele>22.21</ele>
        <time>2024-08-27T13:24:57.523Z</time>
      </trkpt>
      <trkpt lat="43.53796" lon="3.48531">
        <ele>22.12</ele>
        <time>2024-08-27T13:25:09.236Z</time>
      </trkpt>
      <trkpt lat="43.53794" lon="3.48538">
        <ele>22.11</ele>
        <time>2024-08-27T13:25:20.950Z</time>
      </trkpt>
      <trkpt lat="43.53794" lon="3.48546">
        <ele>22.14</ele>
        <time>2024-08-27T13:25:32.665Z</time>
      </trkpt>
      <trkpt lat="43.53796" lon="3.48554">
        <ele>22.28</ele>
        <time>2024-08-27T13:25:44.381Z</time>
      </trkpt>
      <trkpt lat="43.53799" lon="3.48562">
        <ele>22.67</ele>
        <time>2024-08-27T13:25:56.098Z</time>
      </trkpt>
      <trkpt lat="43.53806" lon="3.48567">
        <ele>23.32</ele>
        <time>2024-08-27T13:26:07.816Z</time>
      </trkpt>
      <trkpt lat="43.5381" lon="3.48582">
        <ele>24.27</ele>
        <time>2024-08-27T13:26:19.536Z</time>
      </trkpt>
      <trkpt lat="43.53814" lon="3.48611">
        <ele>25.76</ele>
        <time>2024-08-27T13:26:31.259Z</time>
      </trkpt>
      <trkpt lat="43.53818" lon="3.48932">
        <ele>27.67</ele>
        <time>2024-08-27T13:26:43.019Z</time>
      </trkpt>
      <trkpt lat="43.53819" lon="3.48951">
        <ele>32.39</ele>
        <time>2024-08-27T13:26:54.782Z</time>
      </trkpt>
      <trkpt lat="43.53824" lon="3.49322">
        <ele>33.62</ele>
        <time>2024-08-27T13:27:06.588Z</time>
      </trkpt>
      <trkpt lat="43.53826" lon="3.49464">
        <ele>34.94</ele>
        <time>2024-08-27T13:27:18.410Z</time>
      </trkpt>
      <trkpt lat="43.53825" lon="3.49588">
        <ele>36.57</ele>
        <time>2024-08-27T13:27:30.247Z</time>
      </trkpt>
      <trkpt lat="43.53753" lon="3.49662">
        <ele>37.06</ele>
        <time>2024-08-27T13:27:42.098Z</time>
      </trkpt>
      <trkpt lat="43.53666" lon="3.49754">
        <ele>36.98</ele>
        <time>2024-08-27T13:27:53.967Z</time>
      </trkpt>
      <trkpt lat="43.53646" lon="3.49775">
        <ele>37.07</ele>
        <time>2024-08-27T13:28:05.840Z</time>
      </trkpt>
      <trkpt lat="43.53625" lon="3.49795">
        <ele>37.02</ele>
        <time>2024-08-27T13:28:17.717Z</time>
      </trkpt>
      <trkpt lat="43.53579" lon="3.49846">
        <ele>37.14</ele>
        <time>2024-08-27T13:28:29.603Z</time>
      </trkpt>
      <trkpt lat="43.53552" lon="3.49873">
        <ele>37.15</ele>
        <time>2024-08-27T13:28:41.495Z</time>
      </trkpt>
      <trkpt lat="43.53527" lon="3.49902">
        <ele>37.32</ele>
        <time>2024-08-27T13:28:53.392Z</time>
      </trkpt>
      <trkpt lat="43.53506" lon="3.49922">
        <ele>37.33</ele>
        <time>2024-08-27T13:29:05.293Z</time>
      </trkpt>
      <trkpt lat="43.53476" lon="3.49954">
        <ele>37.38</ele>
        <time>2024-08-27T13:29:17.200Z</time>
      </trkpt>
      <trkpt lat="43.53451" lon="3.49988">
        <ele>37.95</ele>
        <time>2024-08-27T13:29:29.113Z</time>
      </trkpt>
      <trkpt lat="43.53427" lon="3.50018">
        <ele>38.85</ele>
        <time>2024-08-27T13:29:41.031Z</time>
      </trkpt>
      <trkpt lat="43.53331" lon="3.50153">
        <ele>39.95</ele>
        <time>2024-08-27T13:29:52.971Z</time>
      </trkpt>
      <trkpt lat="43.53307" lon="3.50188">
        <ele>41.4</ele>
        <time>2024-08-27T13:30:04.917Z</time>
      </trkpt>
      <trkpt lat="43.53226" lon="3.503">
        <ele>43.53</ele>
        <time>2024-08-27T13:30:16.881Z</time>
      </trkpt>
      <trkpt lat="43.53216" lon="3.50316">
        <ele>45.63</ele>
        <time>2024-08-27T13:30:28.847Z</time>
      </trkpt>
      <trkpt lat="43.53208" lon="3.50333">
        <ele>48.07</ele>
        <time>2024-08-27T13:30:40.816Z</time>
      </trkpt>
      <trkpt lat="43.53202" lon="3.50354">
        <ele>50.68</ele>
        <time>2024-08-27T13:30:52.787Z</time>
      </trkpt>
      <trkpt lat="43.53166" lon="3.50527">
        <ele>54.32</ele>
        <time>2024-08-27T13:31:04.779Z</time>
      </trkpt>
      <trkpt lat="43.53159" lon="3.50553">
        <ele>57.41</ele>
        <time>2024-08-27T13:31:16.775Z</time>
      </trkpt>
      <trkpt lat="43.53148" lon="3.50582">
        <ele>60.53</ele>
        <time>2024-08-27T13:31:28.774Z</time>
      </trkpt>
      <trkpt lat="43.53066" lon="3.50767">
        <ele>64.31</ele>
        <time>2024-08-27T13:31:40.799Z</time>
      </trkpt>
      <trkpt lat="43.53027" lon="3.50859">
        <ele>67.19</ele>
        <time>2024-08-27T13:31:52.836Z</time>
      </trkpt>
      <trkpt lat="43.53006" lon="3.50901">
        <ele>69.87</ele>
        <time>2024-08-27T13:32:04.879Z</time>
      </trkpt>
      <trkpt lat="43.5299" lon="3.50932">
        <ele>72.34</ele>
        <time>2024-08-27T13:32:16.926Z</time>
      </trkpt>
      <trkpt lat="43.52956" lon="3.50984">
        <ele>74.83</ele>
        <time>2024-08-27T13:32:28.981Z</time>
      </trkpt>
      <trkpt lat="43.52936" lon="3.51024">
        <ele>77.03</ele>
        <time>2024-08-27T13:32:41.042Z</time>
      </trkpt>
      <trkpt lat="43.52917" lon="3.51081">
        <ele>79.07</ele>
        <time>2024-08-27T13:32:53.110Z</time>
      </trkpt>
      <trkpt lat="43.52883" lon="3.512">
        <ele>80.84</ele>
        <time>2024-08-27T13:33:05.193Z</time>
      </trkpt>
      <trkpt lat="43.52869" lon="3.51247">
        <ele>82.46</ele>
        <time>2024-08-27T13:33:17.282Z</time>
      </trkpt>
      <trkpt lat="43.52863" lon="3.51274">
        <ele>83.52</ele>
        <time>2024-08-27T13:33:29.374Z</time>
      </trkpt>
      <trkpt lat="43.52856" lon="3.51288">
        <ele>84.3</ele>
        <time>2024-08-27T13:33:41.468Z</time>
      </trkpt>
      <trkpt lat="43.52854" lon="3.51292">
        <ele>84.89</ele>
        <time>2024-08-27T13:33:53.563Z</time>
      </trkpt>
      <trkpt lat="43.52853" lon="3.51299">
        <ele>85.33</ele>
        <time>2024-08-27T13:34:05.659Z</time>
      </trkpt>
      <trkpt lat="43.52855" lon="3.51304">
        <ele>85.64</ele>
        <time>2024-08-27T13:34:17.756Z</time>
      </trkpt>
      <trkpt lat="43.52853" lon="3.51331">
        <ele>85.92</ele>
        <time>2024-08-27T13:34:29.856Z</time>
      </trkpt>
      <trkpt lat="43.52848" lon="3.51384">
        <ele>85.96</ele>
        <time>2024-08-27T13:34:41.962Z</time>
      </trkpt>
      <trkpt lat="43.52844" lon="3.51464">
        <ele>85.73</ele>
        <time>2024-08-27T13:34:54.077Z</time>
      </trkpt>
      <trkpt lat="43.5284" lon="3.51563">
        <ele>84.94</ele>
        <time>2024-08-27T13:35:06.204Z</time>
      </trkpt>
      <trkpt lat="43.5284" lon="3.51563">
        <ele>84.3</ele>
        <time>2024-08-27T13:35:18.331Z</time>
      </trkpt>
      <trkpt lat="43.52843" lon="3.51657">
        <ele>82.91</ele>
        <time>2024-08-27T13:35:30.469Z</time>
      </trkpt>
      <trkpt lat="43.52844" lon="3.51689">
        <ele>79.82</ele>
        <time>2024-08-27T13:35:42.610Z</time>
      </trkpt>
      <trkpt lat="43.52843" lon="3.51728">
        <ele>79.24</ele>
        <time>2024-08-27T13:35:54.756Z</time>
      </trkpt>
      <trkpt lat="43.5281" lon="3.51699">
        <ele>78.75</ele>
        <time>2024-08-27T13:36:06.908Z</time>
      </trkpt>
      <trkpt lat="43.5281" lon="3.51699">
        <ele>78.42</ele>
        <time>2024-08-27T13:36:19.060Z</time>
      </trkpt>
      <trkpt lat="43.52787" lon="3.51677">
        <ele>78.23</ele>
        <time>2024-08-27T13:36:31.217Z</time>
      </trkpt>
      <trkpt lat="43.52777" lon="3.51669">
        <ele>77.95</ele>
        <time>2024-08-27T13:36:43.376Z</time>
      </trkpt>
      <trkpt lat="43.52751" lon="3.51653">
        <ele>77.43</ele>
        <time>2024-08-27T13:36:55.539Z</time>
      </trkpt>
      <trkpt lat="43.5274" lon="3.51643">
        <ele>76.77</ele>
        <time>2024-08-27T13:37:07.704Z</time>
      </trkpt>
      <trkpt lat="43.5268" lon="3.51567">
        <ele>75.89</ele>
        <time>2024-08-27T13:37:19.882Z</time>
      </trkpt>
      <trkpt lat="43.52663" lon="3.51539">
        <ele>74.95</ele>
        <time>2024-08-27T13:37:32.065Z</time>
      </trkpt>
      <trkpt lat="43.52653" lon="3.51529">
        <ele>73.79</ele>
        <time>2024-08-27T13:37:44.249Z</time>
      </trkpt>
      <trkpt lat="43.52608" lon="3.51473">
        <ele>72.35</ele>
        <time>2024-08-27T13:37:56.443Z</time>
      </trkpt>
      <trkpt lat="43.52562" lon="3.5144">
        <ele>70.73</ele>
        <time>2024-08-27T13:38:08.645Z</time>
      </trkpt>
      <trkpt lat="43.52535" lon="3.51428">
        <ele>69.16</ele>
        <time>2024-08-27T13:38:20.852Z</time>
      </trkpt>
      <trkpt lat="43.52499" lon="3.51399">
        <ele>67.4</ele>
        <time>2024-08-27T13:38:33.066Z</time>
      </trkpt>
      <trkpt lat="43.52467" lon="3.51347">
        <ele>65.41</ele>
        <time>2024-08-27T13:38:45.288Z</time>
      </trkpt>
      <trkpt lat="43.52459" lon="3.51334">
        <ele>63.26</ele>
        <time>2024-08-27T13:38:57.512Z</time>
      </trkpt>
      <trkpt lat="43.52413" lon="3.51247">
        <ele>60.34</ele>
        <time>2024-08-27T13:39:09.748Z</time>
      </trkpt>
      <trkpt lat="43.52395" lon="3.51207">
        <ele>58.14</ele>
        <time>2024-08-27T13:39:21.990Z</time>
      </trkpt>
      <trkpt lat="43.52378" lon="3.51168">
        <ele>55.92</ele>
        <time>2024-08-27T13:39:34.237Z</time>
      </trkpt>
      <trkpt lat="43.5234" lon="3.51109">
        <ele>53.38</ele>
        <time>2024-08-27T13:39:46.493Z</time>
      </trkpt>
      <trkpt lat="43.52333" lon="3.51099">
        <ele>51.82</ele>
        <time>2024-08-27T13:39:58.751Z</time>
      </trkpt>
      <trkpt lat="43.52317" lon="3.51085">
        <ele>50.43</ele>
        <time>2024-08-27T13:40:11.012Z</time>
      </trkpt>
      <trkpt lat="43.52312" lon="3.51082">
        <ele>49.12</ele>
        <time>2024-08-27T13:40:23.274Z</time>
      </trkpt>
      <trkpt lat="43.52254" lon="3.51043">
        <ele>47.66</ele>
        <time>2024-08-27T13:40:35.546Z</time>
      </trkpt>
      <trkpt lat="43.52244" lon="3.51029">
        <ele>46.77</ele>
        <time>2024-08-27T13:40:47.820Z</time>
      </trkpt>
      <trkpt lat="43.5223" lon="3.51005">
        <ele>46.16</ele>
        <time>2024-08-27T13:41:00.098Z</time>
      </trkpt>
      <trkpt lat="43.5223" lon="3.51005">
        <ele>46.95</ele>
        <time>2024-08-27T13:41:12.376Z</time>
      </trkpt>
      <trkpt lat="43.52226" lon="3.50998">
        <ele>47.24</ele>
        <time>2024-08-27T13:41:24.655Z</time>
      </trkpt>
      <trkpt lat="43.52206" lon="3.50979">
        <ele>48.02</ele>
        <time>2024-08-27T13:41:36.938Z</time>
      </trkpt>
      <trkpt lat="43.52148" lon="3.51006">
        <ele>48.39</ele>
        <time>2024-08-27T13:41:49.231Z</time>
      </trkpt>
      <trkpt lat="43.52144" lon="3.5101">
        <ele>48.85</ele>
        <time>2024-08-27T13:42:01.524Z</time>
      </trkpt>
      <trkpt lat="43.52142" lon="3.51015">
        <ele>49.4</ele>
        <time>2024-08-27T13:42:13.818Z</time>
      </trkpt>
      <trkpt lat="43.52135" lon="3.51035">
        <ele>50.09</ele>
        <time>2024-08-27T13:42:26.115Z</time>
      </trkpt>
      <trkpt lat="43.52131" lon="3.51065">
        <ele>50.71</ele>
        <time>2024-08-27T13:42:38.415Z</time>
      </trkpt>
      <trkpt lat="43.52112" lon="3.51143">
        <ele>51.81</ele>
        <time>2024-08-27T13:42:50.725Z</time>
      </trkpt>
      <trkpt lat="43.52083" lon="3.51226">
        <ele>52.73</ele>
        <time>2024-08-27T13:43:03.045Z</time>
      </trkpt>
      <trkpt lat="43.52072" lon="3.51265">
        <ele>53.5</ele>
        <time>2024-08-27T13:43:15.370Z</time>
      </trkpt>
      <trkpt lat="43.52068" lon="3.51273">
        <ele>54.38</ele>
        <time>2024-08-27T13:43:27.697Z</time>
      </trkpt>
      <trkpt lat="43.52059" lon="3.51278">
        <ele>55.4</ele>
        <time>2024-08-27T13:43:40.025Z</time>
      </trkpt>
      <trkpt lat="43.5203" lon="3.51335">
        <ele>56.6</ele>
        <time>2024-08-27T13:43:52.361Z</time>
      </trkpt>
      <trkpt lat="43.52006" lon="3.51385">
        <ele>58.03</ele>
        <time>2024-08-27T13:44:04.704Z</time>
      </trkpt>
      <trkpt lat="43.51964" lon="3.51462">
        <ele>59.58</ele>
        <time>2024-08-27T13:44:17.058Z</time>
      </trkpt>
      <trkpt lat="43.51941" lon="3.51511">
        <ele>61.07</ele>
        <time>2024-08-27T13:44:29.419Z</time>
      </trkpt>
      <trkpt lat="43.51925" lon="3.51552">
        <ele>62.37</ele>
        <time>2024-08-27T13:44:41.785Z</time>
      </trkpt>
      <trkpt lat="43.51925" lon="3.51552">
        <ele>63.6</ele>
        <time>2024-08-27T13:44:54.151Z</time>
      </trkpt>
      <trkpt lat="43.51901" lon="3.51619">
        <ele>65.26</ele>
        <time>2024-08-27T13:45:06.526Z</time>
      </trkpt>
      <trkpt lat="43.51895" lon="3.5166">
        <ele>66.75</ele>
        <time>2024-08-27T13:45:18.906Z</time>
      </trkpt>
      <trkpt lat="43.5189" lon="3.51681">
        <ele>67.66</ele>
        <time>2024-08-27T13:45:31.289Z</time>
      </trkpt>
      <trkpt lat="43.51879" lon="3.51728">
        <ele>68.45</ele>
        <time>2024-08-27T13:45:43.677Z</time>
      </trkpt>
      <trkpt lat="43.51878" lon="3.51755">
        <ele>68.44</ele>
        <time>2024-08-27T13:45:56.068Z</time>
      </trkpt>
      <trkpt lat="43.51874" lon="3.51765">
        <ele>68.3</ele>
        <time>2024-08-27T13:46:08.461Z</time>
      </trkpt>
      <trkpt lat="43.51862" lon="3.51766">
        <ele>67.95</ele>
        <time>2024-08-27T13:46:20.856Z</time>
      </trkpt>
      <trkpt lat="43.51844" lon="3.51765">
        <ele>67.24</ele>
        <time>2024-08-27T13:46:33.254Z</time>
      </trkpt>
      <trkpt lat="43.51832" lon="3.51759">
        <ele>66.5</ele>
        <time>2024-08-27T13:46:45.654Z</time>
      </trkpt>
      <trkpt lat="43.51821" lon="3.51751">
        <ele>65.96</ele>
        <time>2024-08-27T13:46:58.056Z</time>
      </trkpt>
      <trkpt lat="43.51811" lon="3.51741">
        <ele>65.62</ele>
        <time>2024-08-27T13:47:10.460Z</time>
      </trkpt>
      <trkpt lat="43.51798" lon="3.51777">
        <ele>65.84</ele>
        <time>2024-08-27T13:47:22.868Z</time>
      </trkpt>
      <trkpt lat="43.51794" lon="3.51782">
        <ele>66.13</ele>
        <time>2024-08-27T13:47:35.277Z</time>
      </trkpt>
      <trkpt lat="43.5179" lon="3.51786">
        <ele>66.56</ele>
        <time>2024-08-27T13:47:47.687Z</time>
      </trkpt>
      <trkpt lat="43.51756" lon="3.51777">
        <ele>67.09</ele>
        <time>2024-08-27T13:48:00.103Z</time>
      </trkpt>
      <trkpt lat="43.51688" lon="3.51763">
        <ele>67.73</ele>
        <time>2024-08-27T13:48:12.530Z</time>
      </trkpt>
      <trkpt lat="43.51649" lon="3.51752">
        <ele>68.58</ele>
        <time>2024-08-27T13:48:24.963Z</time>
      </trkpt>
      <trkpt lat="43.51608" lon="3.51747">
        <ele>69.45</ele>
        <time>2024-08-27T13:48:37.403Z</time>
      </trkpt>
      <trkpt lat="43.51573" lon="3.51744">
        <ele>70.3</ele>
        <time>2024-08-27T13:48:49.848Z</time>
      </trkpt>
      <trkpt lat="43.51545" lon="3.51751">
        <ele>71.23</ele>
        <time>2024-08-27T13:49:02.298Z</time>
      </trkpt>
      <trkpt lat="43.51461" lon="3.51794">
        <ele>72.82</ele>
        <time>2024-08-27T13:49:14.762Z</time>
      </trkpt>
      <trkpt lat="43.5145" lon="3.51804">
        <ele>73.82</ele>
        <time>2024-08-27T13:49:27.228Z</time>
      </trkpt>
      <trkpt lat="43.51421" lon="3.51845">
        <ele>74.94</ele>
        <time>2024-08-27T13:49:39.701Z</time>
      </trkpt>
      <trkpt lat="43.51416" lon="3.51854">
        <ele>75.59</ele>
        <time>2024-08-27T13:49:52.175Z</time>
      </trkpt>
      <trkpt lat="43.51413" lon="3.51866">
        <ele>76.22</ele>
        <time>2024-08-27T13:50:04.651Z</time>
      </trkpt>
      <trkpt lat="43.51409" lon="3.51888">
        <ele>76.83</ele>
        <time>2024-08-27T13:50:17.129Z</time>
      </trkpt>
      <trkpt lat="43.51395" lon="3.51914">
        <ele>77.32</ele>
        <time>2024-08-27T13:50:29.611Z</time>
      </trkpt>
      <trkpt lat="43.51355" lon="3.51969">
        <ele>78.02</ele>
        <time>2024-08-27T13:50:42.102Z</time>
      </trkpt>
      <trkpt lat="43.5134" lon="3.51993">
        <ele>78.9</ele>
        <time>2024-08-27T13:50:54.597Z</time>
      </trkpt>
      <trkpt lat="43.51335" lon="3.51999">
        <ele>79.47</ele>
        <time>2024-08-27T13:51:07.093Z</time>
      </trkpt>
      <trkpt lat="43.51317" lon="3.52014">
        <ele>80.15</ele>
        <time>2024-08-27T13:51:19.592Z</time>
      </trkpt>
      <trkpt lat="43.51313" lon="3.52016">
        <ele>80.45</ele>
        <time>2024-08-27T13:51:32.092Z</time>
      </trkpt>
      <trkpt lat="43.51294" lon="3.52027">
        <ele>79.27</ele>
        <time>2024-08-27T13:51:44.595Z</time>
      </trkpt>
      <trkpt lat="43.5127" lon="3.52047">
        <ele>79.08</ele>
        <time>2024-08-27T13:51:57.103Z</time>
      </trkpt>
      <trkpt lat="43.51259" lon="3.52047">
        <ele>78.61</ele>
        <time>2024-08-27T13:52:09.613Z</time>
      </trkpt>
      <trkpt lat="43.51246" lon="3.52041">
        <ele>77.99</ele>
        <time>2024-08-27T13:52:22.125Z</time>
      </trkpt>
      <trkpt lat="43.51231" lon="3.52041">
        <ele>77.33</ele>
        <time>2024-08-27T13:52:34.639Z</time>
      </trkpt>
      <trkpt lat="43.51222" lon="3.52043">
        <ele>76.89</ele>
        <time>2024-08-27T13:52:47.155Z</time>
      </trkpt>
      <trkpt lat="43.51219" lon="3.52046">
        <ele>76.75</ele>
        <time>2024-08-27T13:52:59.671Z</time>
      </trkpt>
      <trkpt lat="43.51213" lon="3.52058">
        <ele>76.86</ele>
        <time>2024-08-27T13:53:12.189Z</time>
      </trkpt>
      <trkpt lat="43.51207" lon="3.52059">
        <ele>77.11</ele>
        <time>2024-08-27T13:53:24.708Z</time>
      </trkpt>
      <trkpt lat="43.51187" lon="3.52057">
        <ele>77.64</ele>
        <time>2024-08-27T13:53:37.230Z</time>
      </trkpt>
      <trkpt lat="43.51175" lon="3.52074">
        <ele>78.41</ele>
        <time>2024-08-27T13:53:49.755Z</time>
      </trkpt>
      <trkpt lat="43.51148" lon="3.52103">
        <ele>79.39</ele>
        <time>2024-08-27T13:54:02.285Z</time>
      </trkpt>
      <trkpt lat="43.51145" lon="3.52104">
        <ele>80.27</ele>
        <time>2024-08-27T13:54:14.816Z</time>
      </trkpt>
      <trkpt lat="43.51143" lon="3.52105">
        <ele>81.25</ele>
        <time>2024-08-27T13:54:27.347Z</time>
      </trkpt>
      <trkpt lat="43.51093" lon="3.5209">
        <ele>82.71</ele>
        <time>2024-08-27T13:54:39.886Z</time>
      </trkpt>
      <trkpt lat="43.51074" lon="3.52087">
        <ele>83.84</ele>
        <time>2024-08-27T13:54:52.428Z</time>
      </trkpt>
      <trkpt lat="43.51053" lon="3.52086">
        <ele>85.1</ele>
        <time>2024-08-27T13:55:04.974Z</time>
      </trkpt>
      <trkpt lat="43.51025" lon="3.52089">
        <ele>86.71</ele>
        <time>2024-08-27T13:55:17.524Z</time>
      </trkpt>
      <trkpt lat="43.50984" lon="3.52098">
        <ele>88.71</ele>
        <time>2024-08-27T13:55:30.081Z</time>
      </trkpt>
      <trkpt lat="43.50954" lon="3.52109">
        <ele>90.49</ele>
        <time>2024-08-27T13:55:42.643Z</time>
      </trkpt>
      <trkpt lat="43.50793" lon="3.52175">
        <ele>93.27</ele>
        <time>2024-08-27T13:55:55.232Z</time>
      </trkpt>
      <trkpt lat="43.50762" lon="3.52185">
        <ele>94.72</ele>
        <time>2024-08-27T13:56:07.826Z</time>
      </trkpt>
      <trkpt lat="43.50747" lon="3.52189">
        <ele>96.66</ele>
        <time>2024-08-27T13:56:20.422Z</time>
      </trkpt>
      <trkpt lat="43.50717" lon="3.52194">
        <ele>97.64</ele>
        <time>2024-08-27T13:56:33.023Z</time>
      </trkpt>
      <trkpt lat="43.50717" lon="3.52194">
        <ele>98.47</ele>
        <time>2024-08-27T13:56:45.624Z</time>
      </trkpt>
      <trkpt lat="43.50704" lon="3.52196">
        <ele>99.29</ele>
        <time>2024-08-27T13:56:58.227Z</time>
      </trkpt>
      <trkpt lat="43.50685" lon="3.5219">
        <ele>100.25</ele>
        <time>2024-08-27T13:57:10.833Z</time>
      </trkpt>
      <trkpt lat="43.50643" lon="3.52194">
        <ele>101.69</ele>
        <time>2024-08-27T13:57:23.446Z</time>
      </trkpt>
      <trkpt lat="43.50632" lon="3.52194">
        <ele>103.18</ele>
        <time>2024-08-27T13:57:36.061Z</time>
      </trkpt>
      <trkpt lat="43.50619" lon="3.5219">
        <ele>104.92</ele>
        <time>2024-08-27T13:57:48.678Z</time>
      </trkpt>
      <trkpt lat="43.50538" lon="3.52139">
        <ele>107.37</ele>
        <time>2024-08-27T13:58:01.309Z</time>
      </trkpt>
      <trkpt lat="43.50526" lon="3.52135">
        <ele>109.5</ele>
        <time>2024-08-27T13:58:13.942Z</time>
      </trkpt>
      <trkpt lat="43.50466" lon="3.52138">
        <ele>112.25</ele>
        <time>2024-08-27T13:58:26.585Z</time>
      </trkpt>
      <trkpt lat="43.50412" lon="3.52152">
        <ele>115.31</ele>
        <time>2024-08-27T13:58:39.237Z</time>
      </trkpt>
      <trkpt lat="43.50391" lon="3.52155">
        <ele>117.57</ele>
        <time>2024-08-27T13:58:51.892Z</time>
      </trkpt>
      <trkpt lat="43.50374" lon="3.5216">
        <ele>119.55</ele>
        <time>2024-08-27T13:59:04.550Z</time>
      </trkpt>
      <trkpt lat="43.50332" lon="3.52178">
        <ele>121.56</ele>
        <time>2024-08-27T13:59:17.215Z</time>
      </trkpt>
      <trkpt lat="43.50294" lon="3.52185">
        <ele>123.38</ele>
        <time>2024-08-27T13:59:29.886Z</time>
      </trkpt>
      <trkpt lat="43.50287" lon="3.52193">
        <ele>124.97</ele>
        <time>2024-08-27T13:59:42.558Z</time>
      </trkpt>
      <trkpt lat="43.50278" lon="3.52208">
        <ele>126.43</ele>
        <time>2024-08-27T13:59:55.233Z</time>
      </trkpt>
      <trkpt lat="43.50253" lon="3.52222">
        <ele>127.93</ele>
        <time>2024-08-27T14:00:07.912Z</time>
      </trkpt>
      <trkpt lat="43.5024" lon="3.52236">
        <ele>129.2</ele>
        <time>2024-08-27T14:00:20.594Z</time>
      </trkpt>
      <trkpt lat="43.50235" lon="3.52246">
        <ele>130.29</ele>
        <time>2024-08-27T14:00:33.277Z</time>
      </trkpt>
      <trkpt lat="43.50221" lon="3.52279">
        <ele>131.37</ele>
        <time>2024-08-27T14:00:45.964Z</time>
      </trkpt>
      <trkpt lat="43.50209" lon="3.52303">
        <ele>132.3</ele>
        <time>2024-08-27T14:00:58.655Z</time>
      </trkpt>
      <trkpt lat="43.5019" lon="3.52315">
        <ele>133.31</ele>
        <time>2024-08-27T14:01:11.349Z</time>
      </trkpt>
      <trkpt lat="43.50186" lon="3.52321">
        <ele>134.44</ele>
        <time>2024-08-27T14:01:24.044Z</time>
      </trkpt>
      <trkpt lat="43.50162" lon="3.52373">
        <ele>135.9</ele>
        <time>2024-08-27T14:01:36.746Z</time>
      </trkpt>
      <trkpt lat="43.50101" lon="3.52428">
        <ele>137.66</ele>
        <time>2024-08-27T14:01:49.460Z</time>
      </trkpt>
      <trkpt lat="43.50097" lon="3.52434">
        <ele>138.46</ele>
        <time>2024-08-27T14:02:02.175Z</time>
      </trkpt>
      <trkpt lat="43.50071" lon="3.52464">
        <ele>139.17</ele>
        <time>2024-08-27T14:02:14.895Z</time>
      </trkpt>
      <trkpt lat="43.50052" lon="3.52491">
        <ele>139.68</ele>
        <time>2024-08-27T14:02:27.620Z</time>
      </trkpt>
      <trkpt lat="43.50042" lon="3.52506">
        <ele>140.22</ele>
        <time>2024-08-27T14:02:40.347Z</time>
      </trkpt>
      <trkpt lat="43.50029" lon="3.52516">
        <ele>139.72</ele>
        <time>2024-08-27T14:02:53.076Z</time>
      </trkpt>
      <trkpt lat="43.50019" lon="3.52521">
        <ele>139</ele>
        <time>2024-08-27T14:03:05.807Z</time>
      </trkpt>
      <trkpt lat="43.50015" lon="3.52523">
        <ele>138.28</ele>
        <time>2024-08-27T14:03:18.539Z</time>
      </trkpt>
      <trkpt lat="43.50004" lon="3.52538">
        <ele>137.44</ele>
        <time>2024-08-27T14:03:31.273Z</time>
      </trkpt>
      <trkpt lat="43.4998" lon="3.52561">
        <ele>136.31</ele>
        <time>2024-08-27T14:03:44.012Z</time>
      </trkpt>
      <trkpt lat="43.49956" lon="3.5259">
        <ele>135.11</ele>
        <time>2024-08-27T14:03:56.756Z</time>
      </trkpt>
      <trkpt lat="43.49919" lon="3.52621">
        <ele>133.78</ele>
        <time>2024-08-27T14:04:09.507Z</time>
      </trkpt>
      <trkpt lat="43.49893" lon="3.52633">
        <ele>132.35</ele>
        <time>2024-08-27T14:04:22.263Z</time>
      </trkpt>
      <trkpt lat="43.49867" lon="3.52654">
        <ele>130.85</ele>
        <time>2024-08-27T14:04:35.023Z</time>
      </trkpt>
      <trkpt lat="43.49819" lon="3.52672">
        <ele>129</ele>
        <time>2024-08-27T14:04:47.791Z</time>
      </trkpt>
      <trkpt lat="43.49781" lon="3.52689">
        <ele>127.01</ele>
        <time>2024-08-27T14:05:00.566Z</time>
      </trkpt>
      <trkpt lat="43.49759" lon="3.52697">
        <ele>125.37</ele>
        <time>2024-08-27T14:05:13.344Z</time>
      </trkpt>
      <trkpt lat="43.49653" lon="3.52759">
        <ele>123.26</ele>
        <time>2024-08-27T14:05:26.141Z</time>
      </trkpt>
      <trkpt lat="43.49583" lon="3.52809">
        <ele>121.2</ele>
        <time>2024-08-27T14:05:38.950Z</time>
      </trkpt>
      <trkpt lat="43.49526" lon="3.52837">
        <ele>119.79</ele>
        <time>2024-08-27T14:05:51.769Z</time>
      </trkpt>
      <trkpt lat="43.49513" lon="3.5285">
        <ele>118.52</ele>
        <time>2024-08-27T14:06:04.591Z</time>
      </trkpt>
      <trkpt lat="43.49466" lon="3.52878">
        <ele>117.26</ele>
        <time>2024-08-27T14:06:17.421Z</time>
      </trkpt>
      <trkpt lat="43.49457" lon="3.52888">
        <ele>116.37</ele>
        <time>2024-08-27T14:06:30.253Z</time>
      </trkpt>
      <trkpt lat="43.4943" lon="3.52925">
        <ele>115.6</ele>
        <time>2024-08-27T14:06:43.091Z</time>
      </trkpt>
      <trkpt lat="43.4942" lon="3.52937">
        <ele>115.07</ele>
        <time>2024-08-27T14:06:55.931Z</time>
      </trkpt>
      <trkpt lat="43.49409" lon="3.52944">
        <ele>114.63</ele>
        <time>2024-08-27T14:07:08.773Z</time>
      </trkpt>
      <trkpt lat="43.49405" lon="3.52945">
        <ele>114.28</ele>
        <time>2024-08-27T14:07:21.616Z</time>
      </trkpt>
      <trkpt lat="43.4937" lon="3.52952">
        <ele>113.96</ele>
        <time>2024-08-27T14:07:34.464Z</time>
      </trkpt>
      <trkpt lat="43.4932" lon="3.52968">
        <ele>113.66</ele>
        <time>2024-08-27T14:07:47.320Z</time>
      </trkpt>
      <trkpt lat="43.49305" lon="3.52978">
        <ele>113.48</ele>
        <time>2024-08-27T14:08:00.179Z</time>
      </trkpt>
      <trkpt lat="43.4923" lon="3.53043">
        <ele>113.6</ele>
        <time>2024-08-27T14:08:13.052Z</time>
      </trkpt>
      <trkpt lat="43.49202" lon="3.52984">
        <ele>112.95</ele>
        <time>2024-08-27T14:08:25.933Z</time>
      </trkpt>
      <trkpt lat="43.49154" lon="3.52831">
        <ele>109.08</ele>
        <time>2024-08-27T14:08:38.834Z</time>
      </trkpt>
      <trkpt lat="43.49149" lon="3.52798">
        <ele>108.4</ele>
        <time>2024-08-27T14:08:51.739Z</time>
      </trkpt>
      <trkpt lat="43.49144" lon="3.52775">
        <ele>108.04</ele>
        <time>2024-08-27T14:09:04.647Z</time>
      </trkpt>
      <trkpt lat="43.49135" lon="3.52756">
        <ele>107.92</ele>
        <time>2024-08-27T14:09:17.557Z</time>
      </trkpt>
      <trkpt lat="43.49105" lon="3.5271">
        <ele>108.49</ele>
        <time>2024-08-27T14:09:30.474Z</time>
      </trkpt>
      <trkpt lat="43.49059" lon="3.52623">
        <ele>109.16</ele>
        <time>2024-08-27T14:09:43.404Z</time>
      </trkpt>
      <trkpt lat="43.49033" lon="3.5258">
        <ele>109.76</ele>
        <time>2024-08-27T14:09:56.340Z</time>
      </trkpt>
      <trkpt lat="43.49027" lon="3.52557">
        <ele>110.48</ele>
        <time>2024-08-27T14:10:09.279Z</time>
      </trkpt>
      <trkpt lat="43.49025" lon="3.52523">
        <ele>111.08</ele>
        <time>2024-08-27T14:10:22.222Z</time>
      </trkpt>
      <trkpt lat="43.49021" lon="3.52504">
        <ele>111.65</ele>
        <time>2024-08-27T14:10:35.168Z</time>
      </trkpt>
      <trkpt lat="43.49011" lon="3.52485">
        <ele>112.14</ele>
        <time>2024-08-27T14:10:48.116Z</time>
      </trkpt>
      <trkpt lat="43.48993" lon="3.52466">
        <ele>112.61</ele>
        <time>2024-08-27T14:11:01.068Z</time>
      </trkpt>
      <trkpt lat="43.48941" lon="3.5243">
        <ele>113.03</ele>
        <time>2024-08-27T14:11:14.029Z</time>
      </trkpt>
      <trkpt lat="43.48875" lon="3.52367">
        <ele>113.36</ele>
        <time>2024-08-27T14:11:27.003Z</time>
      </trkpt>
      <trkpt lat="43.48865" lon="3.52364">
        <ele>113.66</ele>
        <time>2024-08-27T14:11:39.979Z</time>
      </trkpt>
      <trkpt lat="43.48834" lon="3.52367">
        <ele>114.01</ele>
        <time>2024-08-27T14:11:52.960Z</time>
      </trkpt>
      <trkpt lat="43.48812" lon="3.52362">
        <ele>114.15</ele>
        <time>2024-08-27T14:12:05.944Z</time>
      </trkpt>
      <trkpt lat="43.48791" lon="3.52353">
        <ele>114.27</ele>
        <time>2024-08-27T14:12:18.932Z</time>
      </trkpt>
      <trkpt lat="43.48771" lon="3.52335">
        <ele>114.35</ele>
        <time>2024-08-27T14:12:31.924Z</time>
      </trkpt>
      <trkpt lat="43.48749" lon="3.5231">
        <ele>114.35</ele>
        <time>2024-08-27T14:12:44.920Z</time>
      </trkpt>
      <trkpt lat="43.48686" lon="3.52211">
        <ele>113.92</ele>
        <time>2024-08-27T14:12:57.932Z</time>
      </trkpt>
      <trkpt lat="43.48676" lon="3.52201">
        <ele>113.66</ele>
        <time>2024-08-27T14:13:10.945Z</time>
      </trkpt>
      <trkpt lat="43.48639" lon="3.5219">
        <ele>113.39</ele>
        <time>2024-08-27T14:13:23.965Z</time>
      </trkpt>
      <trkpt lat="43.48619" lon="3.52187">
        <ele>113.05</ele>
        <time>2024-08-27T14:13:36.988Z</time>
      </trkpt>
      <trkpt lat="43.4861" lon="3.52188">
        <ele>112.76</ele>
        <time>2024-08-27T14:13:50.012Z</time>
      </trkpt>
      <trkpt lat="43.4859" lon="3.52194">
        <ele>112.55</ele>
        <time>2024-08-27T14:14:03.039Z</time>
      </trkpt>
      <trkpt lat="43.48497" lon="3.52242">
        <ele>112.25</ele>
        <time>2024-08-27T14:14:16.082Z</time>
      </trkpt>
      <trkpt lat="43.48473" lon="3.52262">
        <ele>112.11</ele>
        <time>2024-08-27T14:14:29.130Z</time>
      </trkpt>
      <trkpt lat="43.48461" lon="3.52271">
        <ele>111.98</ele>
        <time>2024-08-27T14:14:42.180Z</time>
      </trkpt>
      <trkpt lat="43.48441" lon="3.52276">
        <ele>111.78</ele>
        <time>2024-08-27T14:14:55.233Z</time>
      </trkpt>
      <trkpt lat="43.48406" lon="3.52277">
        <ele>111.67</ele>
        <time>2024-08-27T14:15:08.292Z</time>
      </trkpt>
      <trkpt lat="43.48383" lon="3.52275">
        <ele>111.57</ele>
        <time>2024-08-27T14:15:21.355Z</time>
      </trkpt>
      <trkpt lat="43.48366" lon="3.52275">
        <ele>111.37</ele>
        <time>2024-08-27T14:15:34.420Z</time>
      </trkpt>
      <trkpt lat="43.48353" lon="3.5227">
        <ele>111.2</ele>
        <time>2024-08-27T14:15:47.487Z</time>
      </trkpt>
      <trkpt lat="43.48344" lon="3.52261">
        <ele>111.13</ele>
        <time>2024-08-27T14:16:00.556Z</time>
      </trkpt>
      <trkpt lat="43.4832" lon="3.52229">
        <ele>111.24</ele>
        <time>2024-08-27T14:16:13.631Z</time>
      </trkpt>
      <trkpt lat="43.48305" lon="3.52213">
        <ele>111.5</ele>
        <time>2024-08-27T14:16:26.709Z</time>
      </trkpt>
      <trkpt lat="43.48292" lon="3.52204">
        <ele>111.85</ele>
        <time>2024-08-27T14:16:39.789Z</time>
      </trkpt>
      <trkpt lat="43.48276" lon="3.522">
        <ele>112.25</ele>
        <time>2024-08-27T14:16:52.872Z</time>
      </trkpt>
      <trkpt lat="43.48238" lon="3.52198">
        <ele>112.65</ele>
        <time>2024-08-27T14:17:05.961Z</time>
      </trkpt>
      <trkpt lat="43.48211" lon="3.52189">
        <ele>113.18</ele>
        <time>2024-08-27T14:17:19.054Z</time>
      </trkpt>
      <trkpt lat="43.4815" lon="3.52162">
        <ele>114.07</ele>
        <time>2024-08-27T14:17:32.157Z</time>
      </trkpt>
      <trkpt lat="43.48114" lon="3.52152">
        <ele>114.66</ele>
        <time>2024-08-27T14:17:45.266Z</time>
      </trkpt>
      <trkpt lat="43.48054" lon="3.52132">
        <ele>115.16</ele>
        <time>2024-08-27T14:17:58.385Z</time>
      </trkpt>
      <trkpt lat="43.48014" lon="3.52115">
        <ele>115.24</ele>
        <time>2024-08-27T14:18:11.511Z</time>
      </trkpt>
      <trkpt lat="43.4801" lon="3.52113">
        <ele>115.51</ele>
        <time>2024-08-27T14:18:24.637Z</time>
      </trkpt>
      <trkpt lat="43.47995" lon="3.52106">
        <ele>115.52</ele>
        <time>2024-08-27T14:18:37.766Z</time>
      </trkpt>
      <trkpt lat="43.47938" lon="3.52071">
        <ele>115.86</ele>
        <time>2024-08-27T14:18:50.905Z</time>
      </trkpt>
      <trkpt lat="43.47912" lon="3.52058">
        <ele>116.36</ele>
        <time>2024-08-27T14:19:04.048Z</time>
      </trkpt>
      <trkpt lat="43.4792" lon="3.52111">
        <ele>116.25</ele>
        <time>2024-08-27T14:19:17.198Z</time>
      </trkpt>
      <trkpt lat="43.47927" lon="3.52241">
        <ele>116.39</ele>
        <time>2024-08-27T14:19:30.363Z</time>
      </trkpt>
      <trkpt lat="43.47923" lon="3.52428">
        <ele>118.06</ele>
        <time>2024-08-27T14:19:43.550Z</time>
      </trkpt>
      <trkpt lat="43.47931" lon="3.52512">
        <ele>119.86</ele>
        <time>2024-08-27T14:19:56.746Z</time>
      </trkpt>
      <trkpt lat="43.47949" lon="3.52669">
        <ele>121.8</ele>
        <time>2024-08-27T14:20:09.961Z</time>
      </trkpt>
      <trkpt lat="43.47968" lon="3.52824">
        <ele>122.9</ele>
        <time>2024-08-27T14:20:23.194Z</time>
      </trkpt>
      <trkpt lat="43.47981" lon="3.52874">
        <ele>123.72</ele>
        <time>2024-08-27T14:20:36.433Z</time>
      </trkpt>
      <trkpt lat="43.48012" lon="3.52945">
        <ele>123.76</ele>
        <time>2024-08-27T14:20:49.682Z</time>
      </trkpt>
      <trkpt lat="43.48037" lon="3.5301">
        <ele>123.98</ele>
        <time>2024-08-27T14:21:02.940Z</time>
      </trkpt>
      <trkpt lat="43.48052" lon="3.53065">
        <ele>124.7</ele>
        <time>2024-08-27T14:21:16.204Z</time>
      </trkpt>
      <trkpt lat="43.48098" lon="3.53171">
        <ele>126.26</ele>
        <time>2024-08-27T14:21:29.483Z</time>
      </trkpt>
      <trkpt lat="43.48103" lon="3.53183">
        <ele>126.6</ele>
        <time>2024-08-27T14:21:42.764Z</time>
      </trkpt>
      <trkpt lat="43.48103" lon="3.53183">
        <ele>128.29</ele>
        <time>2024-08-27T14:21:56.045Z</time>
      </trkpt>
      <trkpt lat="43.48126" lon="3.53244">
        <ele>128.62</ele>
        <time>2024-08-27T14:22:09.333Z</time>
      </trkpt>
      <trkpt lat="43.48135" lon="3.53281">
        <ele>128.74</ele>
        <time>2024-08-27T14:22:22.626Z</time>
      </trkpt>
      <trkpt lat="43.48161" lon="3.53462">
        <ele>128.91</ele>
        <time>2024-08-27T14:22:35.941Z</time>
      </trkpt>
      <trkpt lat="43.48171" lon="3.535">
        <ele>128.63</ele>
        <time>2024-08-27T14:22:49.260Z</time>
      </trkpt>
      <trkpt lat="43.48185" lon="3.53529">
        <ele>128.04</ele>
        <time>2024-08-27T14:23:02.583Z</time>
      </trkpt>
      <trkpt lat="43.48127" lon="3.5361">
        <ele>126.26</ele>
        <time>2024-08-27T14:23:15.920Z</time>
      </trkpt>
      <trkpt lat="43.48091" lon="3.53673">
        <ele>124.9</ele>
        <time>2024-08-27T14:23:29.266Z</time>
      </trkpt>
      <trkpt lat="43.48082" lon="3.53684">
        <ele>123.98</ele>
        <time>2024-08-27T14:23:42.614Z</time>
      </trkpt>
      <trkpt lat="43.48072" lon="3.53691">
        <ele>123.15</ele>
        <time>2024-08-27T14:23:55.964Z</time>
      </trkpt>
      <trkpt lat="43.48035" lon="3.53727">
        <ele>122.11</ele>
        <time>2024-08-27T14:24:09.321Z</time>
      </trkpt>
      <trkpt lat="43.4801" lon="3.5375">
        <ele>121.33</ele>
        <time>2024-08-27T14:24:22.683Z</time>
      </trkpt>
      <trkpt lat="43.47982" lon="3.53769">
        <ele>120.81</ele>
        <time>2024-08-27T14:24:36.050Z</time>
      </trkpt>
      <trkpt lat="43.47972" lon="3.53778">
        <ele>120.46</ele>
        <time>2024-08-27T14:24:49.419Z</time>
      </trkpt>
      <trkpt lat="43.47969" lon="3.53778">
        <ele>120.25</ele>
        <time>2024-08-27T14:25:02.788Z</time>
      </trkpt>
      <trkpt lat="43.47964" lon="3.53782">
        <ele>120.17</ele>
        <time>2024-08-27T14:25:16.158Z</time>
      </trkpt>
      <trkpt lat="43.47963" lon="3.53787">
        <ele>120.26</ele>
        <time>2024-08-27T14:25:29.529Z</time>
      </trkpt>
      <trkpt lat="43.47957" lon="3.53787">
        <ele>120.52</ele>
        <time>2024-08-27T14:25:42.900Z</time>
      </trkpt>
      <trkpt lat="43.47933" lon="3.53793">
        <ele>121.02</ele>
        <time>2024-08-27T14:25:56.275Z</time>
      </trkpt>
      <trkpt lat="43.47896" lon="3.53796">
        <ele>121.81</ele>
        <time>2024-08-27T14:26:09.656Z</time>
      </trkpt>
      <trkpt lat="43.47873" lon="3.53792">
        <ele>122.78</ele>
        <time>2024-08-27T14:26:23.041Z</time>
      </trkpt>
      <trkpt lat="43.47858" lon="3.53781">
        <ele>124.05</ele>
        <time>2024-08-27T14:26:36.429Z</time>
      </trkpt>
      <trkpt lat="43.47839" lon="3.53758">
        <ele>125.2</ele>
        <time>2024-08-27T14:26:49.821Z</time>
      </trkpt>
      <trkpt lat="43.47828" lon="3.53744">
        <ele>127.29</ele>
        <time>2024-08-27T14:27:03.215Z</time>
      </trkpt>
      <trkpt lat="43.47806" lon="3.53709">
        <ele>126.33</ele>
        <time>2024-08-27T14:27:16.615Z</time>
      </trkpt>
      <trkpt lat="43.47741" lon="3.53658">
        <ele>123.92</ele>
        <time>2024-08-27T14:27:30.027Z</time>
      </trkpt>
      <trkpt lat="43.47731" lon="3.53641">
        <ele>121.76</ele>
        <time>2024-08-27T14:27:43.441Z</time>
      </trkpt>
      <trkpt lat="43.47713" lon="3.5359">
        <ele>119.35</ele>
        <time>2024-08-27T14:27:56.862Z</time>
      </trkpt>
      <trkpt lat="43.47699" lon="3.53575">
        <ele>116.66</ele>
        <time>2024-08-27T14:28:10.286Z</time>
      </trkpt>
      <trkpt lat="43.47681" lon="3.53574">
        <ele>113.61</ele>
        <time>2024-08-27T14:28:23.712Z</time>
      </trkpt>
      <trkpt lat="43.4766" lon="3.53584">
        <ele>110.52</ele>
        <time>2024-08-27T14:28:37.142Z</time>
      </trkpt>
      <trkpt lat="43.47647" lon="3.53593">
        <ele>107.7</ele>
        <time>2024-08-27T14:28:50.574Z</time>
      </trkpt>
      <trkpt lat="43.47629" lon="3.53603">
        <ele>104.98</ele>
        <time>2024-08-27T14:29:04.009Z</time>
      </trkpt>
      <trkpt lat="43.476" lon="3.53613">
        <ele>102.14</ele>
        <time>2024-08-27T14:29:17.449Z</time>
      </trkpt>
      <trkpt lat="43.47555" lon="3.53621">
        <ele>99.34</ele>
        <time>2024-08-27T14:29:30.896Z</time>
      </trkpt>
      <trkpt lat="43.47537" lon="3.53625">
        <ele>97.12</ele>
        <time>2024-08-27T14:29:44.346Z</time>
      </trkpt>
      <trkpt lat="43.47526" lon="3.5363">
        <ele>95.28</ele>
        <time>2024-08-27T14:29:57.798Z</time>
      </trkpt>
      <trkpt lat="43.47522" lon="3.53637">
        <ele>93.82</ele>
        <time>2024-08-27T14:30:11.251Z</time>
      </trkpt>
      <trkpt lat="43.47517" lon="3.53655">
        <ele>92.57</ele>
        <time>2024-08-27T14:30:24.706Z</time>
      </trkpt>
      <trkpt lat="43.47519" lon="3.53666">
        <ele>91.78</ele>
        <time>2024-08-27T14:30:38.163Z</time>
      </trkpt>
      <trkpt lat="43.47524" lon="3.5368">
        <ele>91.38</ele>
        <time>2024-08-27T14:30:51.622Z</time>
      </trkpt>
      <trkpt lat="43.47535" lon="3.53695">
        <ele>91.25</ele>
        <time>2024-08-27T14:31:05.083Z</time>
      </trkpt>
      <trkpt lat="43.47539" lon="3.53707">
        <ele>91.18</ele>
        <time>2024-08-27T14:31:18.546Z</time>
      </trkpt>
      <trkpt lat="43.47538" lon="3.53733">
        <ele>91.27</ele>
        <time>2024-08-27T14:31:32.012Z</time>
      </trkpt>
      <trkpt lat="43.47527" lon="3.53788">
        <ele>91.51</ele>
        <time>2024-08-27T14:31:45.484Z</time>
      </trkpt>
      <trkpt lat="43.47521" lon="3.53802">
        <ele>91.91</ele>
        <time>2024-08-27T14:31:58.958Z</time>
      </trkpt>
      <trkpt lat="43.4751" lon="3.53807">
        <ele>92.41</ele>
        <time>2024-08-27T14:32:12.434Z</time>
      </trkpt>
      <trkpt lat="43.47481" lon="3.53814">
        <ele>93.01</ele>
        <time>2024-08-27T14:32:25.915Z</time>
      </trkpt>
      <trkpt lat="43.4746" lon="3.53824">
        <ele>93.58</ele>
        <time>2024-08-27T14:32:39.399Z</time>
      </trkpt>
      <trkpt lat="43.47453" lon="3.5383">
        <ele>94.02</ele>
        <time>2024-08-27T14:32:52.885Z</time>
      </trkpt>
      <trkpt lat="43.47445" lon="3.53855">
        <ele>94.52</ele>
        <time>2024-08-27T14:33:06.374Z</time>
      </trkpt>
      <trkpt lat="43.47445" lon="3.53859">
        <ele>94.91</ele>
        <time>2024-08-27T14:33:19.863Z</time>
      </trkpt>
      <trkpt lat="43.47445" lon="3.53859">
        <ele>97.73</ele>
        <time>2024-08-27T14:33:33.352Z</time>
      </trkpt>
      <trkpt lat="43.47446" lon="3.53882">
        <ele>97.56</ele>
        <time>2024-08-27T14:33:46.844Z</time>
      </trkpt>
      <trkpt lat="43.47446" lon="3.53895">
        <ele>97.1</ele>
        <time>2024-08-27T14:34:00.337Z</time>
      </trkpt>
      <trkpt lat="43.4745" lon="3.5391">
        <ele>96.4</ele>
        <time>2024-08-27T14:34:13.832Z</time>
      </trkpt>
      <trkpt lat="43.47449" lon="3.53916">
        <ele>95.43</ele>
        <time>2024-08-27T14:34:27.328Z</time>
      </trkpt>
      <trkpt lat="43.47448" lon="3.53926">
        <ele>94.2</ele>
        <time>2024-08-27T14:34:40.825Z</time>
      </trkpt>
      <trkpt lat="43.47445" lon="3.53936">
        <ele>92.72</ele>
        <time>2024-08-27T14:34:54.323Z</time>
      </trkpt>
      <trkpt lat="43.47437" lon="3.5395">
        <ele>90.8</ele>
        <time>2024-08-27T14:35:07.824Z</time>
      </trkpt>
      <trkpt lat="43.47413" lon="3.53976">
        <ele>88.26</ele>
        <time>2024-08-27T14:35:21.329Z</time>
      </trkpt>
      <trkpt lat="43.47396" lon="3.54">
        <ele>85.71</ele>
        <time>2024-08-27T14:35:34.838Z</time>
      </trkpt>
      <trkpt lat="43.47389" lon="3.54014">
        <ele>83.07</ele>
        <time>2024-08-27T14:35:48.349Z</time>
      </trkpt>
      <trkpt lat="43.47381" lon="3.54028">
        <ele>80.34</ele>
        <time>2024-08-27T14:36:01.862Z</time>
      </trkpt>
      <trkpt lat="43.47352" lon="3.54055">
        <ele>77.28</ele>
        <time>2024-08-27T14:36:15.381Z</time>
      </trkpt>
      <trkpt lat="43.47193" lon="3.542">
        <ele>73.56</ele>
        <time>2024-08-27T14:36:28.930Z</time>
      </trkpt>
      <trkpt lat="43.47147" lon="3.54248">
        <ele>70.98</ele>
        <time>2024-08-27T14:36:42.489Z</time>
      </trkpt>
      <trkpt lat="43.4708" lon="3.54322">
        <ele>68.46</ele>
        <time>2024-08-27T14:36:56.062Z</time>
      </trkpt>
      <trkpt lat="43.47047" lon="3.54355">
        <ele>66.4</ele>
        <time>2024-08-27T14:37:09.641Z</time>
      </trkpt>
      <trkpt lat="43.46967" lon="3.54427">
        <ele>64.83</ele>
        <time>2024-08-27T14:37:23.235Z</time>
      </trkpt>
      <trkpt lat="43.46949" lon="3.54442">
        <ele>63.68</ele>
        <time>2024-08-27T14:37:36.833Z</time>
      </trkpt>
      <trkpt lat="43.46938" lon="3.54447">
        <ele>62.74</ele>
        <time>2024-08-27T14:37:50.433Z</time>
      </trkpt>
      <trkpt lat="43.46931" lon="3.54449">
        <ele>62.03</ele>
        <time>2024-08-27T14:38:04.034Z</time>
      </trkpt>
      <trkpt lat="43.46918" lon="3.54438">
        <ele>61.48</ele>
        <time>2024-08-27T14:38:17.637Z</time>
      </trkpt>
      <trkpt lat="43.46903" lon="3.54425">
        <ele>63.65</ele>
        <time>2024-08-27T14:38:31.243Z</time>
      </trkpt>
      <trkpt lat="43.46894" lon="3.54421">
        <ele>63.51</ele>
        <time>2024-08-27T14:38:44.850Z</time>
      </trkpt>
      <trkpt lat="43.46889" lon="3.54421">
        <ele>63.31</ele>
        <time>2024-08-27T14:38:58.458Z</time>
      </trkpt>
      <trkpt lat="43.46886" lon="3.54423">
        <ele>63.02</ele>
        <time>2024-08-27T14:39:12.067Z</time>
      </trkpt>
      <trkpt lat="43.46843" lon="3.54515">
        <ele>62.56</ele>
        <time>2024-08-27T14:39:25.689Z</time>
      </trkpt>
      <trkpt lat="43.46832" lon="3.54532">
        <ele>62.03</ele>
        <time>2024-08-27T14:39:39.313Z</time>
      </trkpt>
      <trkpt lat="43.46822" lon="3.54543">
        <ele>61.46</ele>
        <time>2024-08-27T14:39:52.939Z</time>
      </trkpt>
      <trkpt lat="43.46822" lon="3.54543">
        <ele>60.79</ele>
        <time>2024-08-27T14:40:06.565Z</time>
      </trkpt>
      <trkpt lat="43.46808" lon="3.5456">
        <ele>59.88</ele>
        <time>2024-08-27T14:40:20.194Z</time>
      </trkpt>
      <trkpt lat="43.46771" lon="3.54622">
        <ele>58.52</ele>
        <time>2024-08-27T14:40:33.833Z</time>
      </trkpt>
      <trkpt lat="43.46757" lon="3.54653">
        <ele>57.65</ele>
        <time>2024-08-27T14:40:47.476Z</time>
      </trkpt>
      <trkpt lat="43.4674" lon="3.54697">
        <ele>56.74</ele>
        <time>2024-08-27T14:41:01.125Z</time>
      </trkpt>
      <trkpt lat="43.46721" lon="3.54761">
        <ele>55.67</ele>
        <time>2024-08-27T14:41:14.782Z</time>
      </trkpt>
      <trkpt lat="43.46714" lon="3.54782">
        <ele>54.72</ele>
        <time>2024-08-27T14:41:28.441Z</time>
      </trkpt>
      <trkpt lat="43.46706" lon="3.54802">
        <ele>54</ele>
        <time>2024-08-27T14:41:42.103Z</time>
      </trkpt>
      <trkpt lat="43.46619" lon="3.54961">
        <ele>52.91</ele>
        <time>2024-08-27T14:41:55.788Z</time>
      </trkpt>
      <trkpt lat="43.466" lon="3.54993">
        <ele>52.77</ele>
        <time>2024-08-27T14:42:09.478Z</time>
      </trkpt>
      <trkpt lat="43.46575" lon="3.55026">
        <ele>53.26</ele>
        <time>2024-08-27T14:42:23.174Z</time>
      </trkpt>
      <trkpt lat="43.46552" lon="3.55056">
        <ele>53.96</ele>
        <time>2024-08-27T14:42:36.875Z</time>
      </trkpt>
      <trkpt lat="43.46519" lon="3.55088">
        <ele>54.92</ele>
        <time>2024-08-27T14:42:50.582Z</time>
      </trkpt>
      <trkpt lat="43.46488" lon="3.55116">
        <ele>56.87</ele>
        <time>2024-08-27T14:43:04.295Z</time>
      </trkpt>
      <trkpt lat="43.46465" lon="3.55142">
        <ele>58.5</ele>
        <time>2024-08-27T14:43:18.013Z</time>
      </trkpt>
      <trkpt lat="43.46455" lon="3.55159">
        <ele>59.41</ele>
        <time>2024-08-27T14:43:31.733Z</time>
      </trkpt>
      <trkpt lat="43.46427" lon="3.55208">
        <ele>63.23</ele>
        <time>2024-08-27T14:43:45.461Z</time>
      </trkpt>
      <trkpt lat="43.46397" lon="3.55236">
        <ele>67.4</ele>
      </trkpt>
      <trkpt lat="43.46395" lon="3.55285">
        <ele>70.1</ele>
      </trkpt>
      <trkpt lat="43.46367" lon="3.55399">
        <ele>68.7</ele>
      </trkpt>
      <trkpt lat="43.46358" lon="3.55453">
        <ele>64.7</ele>
      </trkpt>
      <trkpt lat="43.46352" lon="3.55659">
        <ele>58.7</ele>
      </trkpt>
      <trkpt lat="43.46335" lon="3.55723">
        <ele>54.9</ele>
      </trkpt>
      <trkpt lat="43.4635" lon="3.5577">
        <ele>51.7</ele>
      </trkpt>
      <trkpt lat="43.46324" lon="3.55886">
        <ele>45</ele>
      </trkpt>
      <trkpt lat="43.46296" lon="3.55968">
        <ele>40.4</ele>
      </trkpt>
      <trkpt lat="43.46235" lon="3.56026">
        <ele>37.1</ele>
      </trkpt>
      <trkpt lat="43.46179" lon="3.56242">
        <ele>32.1</ele>
      </trkpt>
      <trkpt lat="43.46131" lon="3.56369">
        <ele>31.2</ele>
      </trkpt>
      <trkpt lat="43.46098" lon="3.56451">
        <ele>29</ele>
      </trkpt>
      <trkpt lat="43.46025" lon="3.56584">
        <ele>28.9</ele>
      </trkpt>
      <trkpt lat="43.45942" lon="3.56682">
        <ele>31.6</ele>
      </trkpt>
      <trkpt lat="43.45877" lon="3.56768">
        <ele>36</ele>
      </trkpt>
      <trkpt lat="43.45807" lon="3.56968">
        <ele>31</ele>
      </trkpt>
      <trkpt lat="43.45758" lon="3.57112">
        <ele>30</ele>
      </trkpt>
      <trkpt lat="43.45663" lon="3.57373">
        <ele>28.1</ele>
      </trkpt>
      <trkpt lat="43.45585" lon="3.57549">
        <ele>31.1</ele>
      </trkpt>
      <trkpt lat="43.45533" lon="3.57749">
        <ele>35.1</ele>
      </trkpt>
      <trkpt lat="43.45442" lon="3.5795">
        <ele>37</ele>
      </trkpt>
      <trkpt lat="43.45385" lon="3.58165">
        <ele>42.1</ele>
      </trkpt>
      <trkpt lat="43.45316" lon="3.58208">
        <ele>44.1</ele>
      </trkpt>
      <trkpt lat="43.45263" lon="3.58214">
        <ele>46</ele>
      </trkpt>
      <trkpt lat="43.45255" lon="3.58255">
        <ele>45.8</ele>
      </trkpt>
      <trkpt lat="43.45272" lon="3.58326">
        <ele>45</ele>
      </trkpt>
      <trkpt lat="43.45207" lon="3.58472">
        <ele>39.5</ele>
      </trkpt>
      <trkpt lat="43.45146" lon="3.58532">
        <ele>35.1</ele>
      </trkpt>
      <trkpt lat="43.45004" lon="3.58581">
        <ele>28.9</ele>
      </trkpt>
      <trkpt lat="43.44961" lon="3.58601">
        <ele>27.2</ele>
      </trkpt>
      <trkpt lat="43.44883" lon="3.58693">
        <ele>21.8</ele>
      </trkpt>
      <trkpt lat="43.44674" lon="3.58828">
        <ele>13.3</ele>
      </trkpt>
      <trkpt lat="43.44716" lon="3.58993">
        <ele>12.4</ele>
      </trkpt>
      <trkpt lat="43.44794" lon="3.5918">
        <ele>10.3</ele>
      </trkpt>
      <trkpt lat="43.44839" lon="3.59272">
        <ele>9.4</ele>
      </trkpt>
      <trkpt lat="43.44902" lon="3.59485">
        <ele>9.9</ele>
      </trkpt>
      <trkpt lat="43.44931" lon="3.59736">
        <ele>15.5</ele>
      </trkpt>
      <trkpt lat="43.44933" lon="3.59828">
        <ele>10.7</ele>
      </trkpt>
      <trkpt lat="43.44956" lon="3.59957">
        <ele>7.7</ele>
      </trkpt>
      <trkpt lat="43.4495" lon="3.60055">
        <ele>8</ele>
      </trkpt>
      <trkpt lat="43.44903" lon="3.60152">
        <ele>8.5</ele>
      </trkpt>
      <trkpt lat="43.44866" lon="3.60261">
        <ele>8.2</ele>
      </trkpt>
      <trkpt lat="43.44877" lon="3.60442">
        <ele>9.3</ele>
      </trkpt>
      <trkpt lat="43.44881" lon="3.60639">
        <ele>12</ele>
      </trkpt>
      <trkpt lat="43.44789" lon="3.60742">
        <ele>14.7</ele>
      </trkpt>
      <trkpt lat="43.44674" lon="3.60864">
        <ele>19.5</ele>
      </trkpt>
      <trkpt lat="43.44629" lon="3.60925">
        <ele>21.4</ele>
      </trkpt>
      <trkpt lat="43.44599" lon="3.60991">
        <ele>22.3</ele>
      </trkpt>
      <trkpt lat="43.44624" lon="3.6106">
        <ele>23.7</ele>
      </trkpt>
      <trkpt lat="43.44646" lon="3.61146">
        <ele>23.5</ele>
      </trkpt>
      <trkpt lat="43.44665" lon="3.613">
        <ele>23.9</ele>
      </trkpt>
      <trkpt lat="43.4471" lon="3.61455">
        <ele>18.8</ele>
      </trkpt>
      <trkpt lat="43.44708" lon="3.61515">
        <ele>17.2</ele>
      </trkpt>
      <trkpt lat="43.44713" lon="3.61536">
        <ele>16.7</ele>
      </trkpt>
      <trkpt lat="43.44512" lon="3.61615">
        <ele>12</ele>
      </trkpt>
      <trkpt lat="43.44305" lon="3.61639">
        <ele>11</ele>
      </trkpt>
      <trkpt lat="43.44099" lon="3.61678">
        <ele>6</ele>
      </trkpt>
      <trkpt lat="43.44025" lon="3.61712">
        <ele>5</ele>
      </trkpt>
      <trkpt lat="43.4385" lon="3.61785">
        <ele>4</ele>
      </trkpt>
      <trkpt lat="43.43682" lon="3.61781">
        <ele>3</ele>
      </trkpt>
      <trkpt lat="43.43576" lon="3.61815">
        <ele>3.7</ele>
      </trkpt>
      <trkpt lat="43.43524" lon="3.61796">
        <ele>5.7</ele>
      </trkpt>
      <trkpt lat="43.43503" lon="3.6183">
        <ele>6</ele>
      </trkpt>
      <trkpt lat="43.43506" lon="3.61856">
        <ele>5.8</ele>
      </trkpt>
      <trkpt lat="43.43495" lon="3.61871">
        <ele>6.4</ele>
      </trkpt>
      <trkpt lat="43.43493" lon="3.61888">
        <ele>3.87</ele>
        <time>2024-08-27T15:49:40.808Z</time>
      </trkpt>
      <trkpt lat="43.43502" lon="3.61898">
        <ele>3.54</ele>
        <time>2024-08-27T15:49:55.988Z</time>
      </trkpt>
      <trkpt lat="43.43513" lon="3.61906">
        <ele>2.87</ele>
        <time>2024-08-27T15:50:11.170Z</time>
      </trkpt>
      <trkpt lat="43.43546" lon="3.61913">
        <ele>1.79</ele>
        <time>2024-08-27T15:50:26.357Z</time>
      </trkpt>
      <trkpt lat="43.43555" lon="3.61918">
        <ele>1.15</ele>
        <time>2024-08-27T15:50:41.546Z</time>
      </trkpt>
      <trkpt lat="43.43567" lon="3.61928">
        <ele>0.87</ele>
        <time>2024-08-27T15:50:56.737Z</time>
      </trkpt>
      <trkpt lat="43.43575" lon="3.61937">
        <ele>0.78</ele>
        <time>2024-08-27T15:51:11.930Z</time>
      </trkpt>
      <trkpt lat="43.43588" lon="3.61964">
        <ele>0.97</ele>
        <time>2024-08-27T15:51:27.127Z</time>
      </trkpt>
      <trkpt lat="43.43594" lon="3.61984">
        <ele>1.23</ele>
        <time>2024-08-27T15:51:42.326Z</time>
      </trkpt>
      <trkpt lat="43.43598" lon="3.62011">
        <ele>1.4</ele>
        <time>2024-08-27T15:51:57.528Z</time>
      </trkpt>
      <trkpt lat="43.43599" lon="3.62065">
        <ele>1.52</ele>
        <time>2024-08-27T15:52:12.737Z</time>
      </trkpt>
      <trkpt lat="43.43599" lon="3.6207">
        <ele>1.54</ele>
        <time>2024-08-27T15:52:27.946Z</time>
      </trkpt>
      <trkpt lat="43.43613" lon="3.62129">
        <ele>1.46</ele>
        <time>2024-08-27T15:52:43.163Z</time>
      </trkpt>
      <trkpt lat="43.4365" lon="3.62266">
        <ele>1.34</ele>
        <time>2024-08-27T15:52:58.396Z</time>
      </trkpt>
      <trkpt lat="43.43659" lon="3.6229">
        <ele>1.32</ele>
        <time>2024-08-27T15:53:13.633Z</time>
      </trkpt>
      <trkpt lat="43.43682" lon="3.62342">
        <ele>1.27</ele>
        <time>2024-08-27T15:53:28.877Z</time>
      </trkpt>
      <trkpt lat="43.43715" lon="3.62393">
        <ele>1.37</ele>
        <time>2024-08-27T15:53:44.129Z</time>
      </trkpt>
      <trkpt lat="43.43747" lon="3.62437">
        <ele>0.96</ele>
        <time>2024-08-27T15:53:59.388Z</time>
      </trkpt>
      <trkpt lat="43.43781" lon="3.62469">
        <ele>0.75</ele>
        <time>2024-08-27T15:54:14.653Z</time>
      </trkpt>
      <trkpt lat="43.4379" lon="3.62483">
        <ele>0.7</ele>
        <time>2024-08-27T15:54:29.921Z</time>
      </trkpt>
      <trkpt lat="43.43829" lon="3.62525">
        <ele>0.53</ele>
        <time>2024-08-27T15:54:45.197Z</time>
      </trkpt>
      <trkpt lat="43.43829" lon="3.62525">
        <ele>0.44</ele>
        <time>2024-08-27T15:55:00.473Z</time>
      </trkpt>
      <trkpt lat="43.43856" lon="3.6255">
        <ele>1.69</ele>
        <time>2024-08-27T15:55:15.754Z</time>
      </trkpt>
      <trkpt lat="43.43887" lon="3.62575">
        <ele>2.35</ele>
        <time>2024-08-27T15:55:31.041Z</time>
      </trkpt>
      <trkpt lat="43.43914" lon="3.62587">
        <ele>2.83</ele>
        <time>2024-08-27T15:55:46.332Z</time>
      </trkpt>
      <trkpt lat="43.43927" lon="3.62589">
        <ele>3.13</ele>
        <time>2024-08-27T15:56:01.625Z</time>
      </trkpt>
      <trkpt lat="43.43947" lon="3.62591">
        <ele>3.31</ele>
        <time>2024-08-27T15:56:16.921Z</time>
      </trkpt>
      <trkpt lat="43.43954" lon="3.62594">
        <ele>3.41</ele>
        <time>2024-08-27T15:56:32.219Z</time>
      </trkpt>
      <trkpt lat="43.43965" lon="3.62604">
        <ele>3.46</ele>
        <time>2024-08-27T15:56:47.519Z</time>
      </trkpt>
      <trkpt lat="43.43982" lon="3.62626">
        <ele>3.53</ele>
        <time>2024-08-27T15:57:02.823Z</time>
      </trkpt>
      <trkpt lat="43.44001" lon="3.62653">
        <ele>3.56</ele>
        <time>2024-08-27T15:57:18.131Z</time>
      </trkpt>
      <trkpt lat="43.44072" lon="3.62771">
        <ele>3.58</ele>
        <time>2024-08-27T15:57:33.457Z</time>
      </trkpt>
      <trkpt lat="43.44085" lon="3.62792">
        <ele>3.42</ele>
        <time>2024-08-27T15:57:48.786Z</time>
      </trkpt>
      <trkpt lat="43.44089" lon="3.62803">
        <ele>3.26</ele>
        <time>2024-08-27T15:58:04.116Z</time>
      </trkpt>
      <trkpt lat="43.44089" lon="3.62818">
        <ele>3.09</ele>
        <time>2024-08-27T15:58:19.448Z</time>
      </trkpt>
      <trkpt lat="43.44087" lon="3.62827">
        <ele>2.93</ele>
        <time>2024-08-27T15:58:34.781Z</time>
      </trkpt>
      <trkpt lat="43.44071" lon="3.62859">
        <ele>2.5</ele>
        <time>2024-08-27T15:58:50.119Z</time>
      </trkpt>
      <trkpt lat="43.44068" lon="3.62876">
        <ele>2.26</ele>
        <time>2024-08-27T15:59:05.459Z</time>
      </trkpt>
      <trkpt lat="43.44069" lon="3.62891">
        <ele>2.17</ele>
        <time>2024-08-27T15:59:20.800Z</time>
      </trkpt>
      <trkpt lat="43.44074" lon="3.62902">
        <ele>2.14</ele>
        <time>2024-08-27T15:59:36.143Z</time>
      </trkpt>
      <trkpt lat="43.44083" lon="3.62918">
        <ele>2.23</ele>
        <time>2024-08-27T15:59:51.488Z</time>
      </trkpt>
      <trkpt lat="43.44108" lon="3.62949">
        <ele>2.52</ele>
        <time>2024-08-27T16:00:06.839Z</time>
      </trkpt>
      <trkpt lat="43.44127" lon="3.62989">
        <ele>2.67</ele>
        <time>2024-08-27T16:00:22.195Z</time>
      </trkpt>
      <trkpt lat="43.44146" lon="3.63026">
        <ele>2.89</ele>
        <time>2024-08-27T16:00:37.557Z</time>
      </trkpt>
      <trkpt lat="43.44156" lon="3.63043">
        <ele>3.21</ele>
        <time>2024-08-27T16:00:52.921Z</time>
      </trkpt>
      <trkpt lat="43.44178" lon="3.63075">
        <ele>3.57</ele>
        <time>2024-08-27T16:01:08.290Z</time>
      </trkpt>
      <trkpt lat="43.44208" lon="3.63108">
        <ele>4.07</ele>
        <time>2024-08-27T16:01:23.665Z</time>
      </trkpt>
      <trkpt lat="43.44254" lon="3.63166">
        <ele>5.15</ele>
        <time>2024-08-27T16:01:39.050Z</time>
      </trkpt>
      <trkpt lat="43.44281" lon="3.63212">
        <ele>6.23</ele>
        <time>2024-08-27T16:01:54.442Z</time>
      </trkpt>
      <trkpt lat="43.44302" lon="3.63255">
        <ele>7.16</ele>
        <time>2024-08-27T16:02:09.840Z</time>
      </trkpt>
      <trkpt lat="43.44315" lon="3.63272">
        <ele>8.01</ele>
        <time>2024-08-27T16:02:25.241Z</time>
      </trkpt>
      <trkpt lat="43.44312" lon="3.63278">
        <ele>8.78</ele>
        <time>2024-08-27T16:02:40.643Z</time>
      </trkpt>
      <trkpt lat="43.44314" lon="3.63285">
        <ele>9.79</ele>
        <time>2024-08-27T16:02:56.046Z</time>
      </trkpt>
      <trkpt lat="43.44329" lon="3.63294">
        <ele>11.15</ele>
        <time>2024-08-27T16:03:11.452Z</time>
      </trkpt>
      <trkpt lat="43.44355" lon="3.63326">
        <ele>12.78</ele>
        <time>2024-08-27T16:03:26.863Z</time>
      </trkpt>
      <trkpt lat="43.44365" lon="3.63338">
        <ele>15.41</ele>
        <time>2024-08-27T16:03:42.276Z</time>
      </trkpt>
      <trkpt lat="43.44369" lon="3.63353">
        <ele>15.48</ele>
        <time>2024-08-27T16:03:57.691Z</time>
      </trkpt>
      <trkpt lat="43.44372" lon="3.63357">
        <ele>15.53</ele>
        <time>2024-08-27T16:04:13.107Z</time>
      </trkpt>
      <trkpt lat="43.44379" lon="3.63369">
        <ele>15.6</ele>
        <time>2024-08-27T16:04:28.525Z</time>
      </trkpt>
      <trkpt lat="43.44381" lon="3.63376">
        <ele>15.64</ele>
        <time>2024-08-27T16:04:43.944Z</time>
      </trkpt>
      <trkpt lat="43.44381" lon="3.63385">
        <ele>15.65</ele>
        <time>2024-08-27T16:04:59.364Z</time>
      </trkpt>
      <trkpt lat="43.44378" lon="3.63444">
        <ele>15.22</ele>
        <time>2024-08-27T16:05:14.790Z</time>
      </trkpt>
      <trkpt lat="43.44379" lon="3.63454">
        <ele>15.01</ele>
        <time>2024-08-27T16:05:30.218Z</time>
      </trkpt>
      <trkpt lat="43.44402" lon="3.63552">
        <ele>15.23</ele>
        <time>2024-08-27T16:05:45.658Z</time>
      </trkpt>
      <trkpt lat="43.44409" lon="3.63575">
        <ele>15.08</ele>
        <time>2024-08-27T16:06:01.101Z</time>
      </trkpt>
      <trkpt lat="43.44418" lon="3.63598">
        <ele>14.82</ele>
        <time>2024-08-27T16:06:16.547Z</time>
      </trkpt>
      <trkpt lat="43.44438" lon="3.63636">
        <ele>14.3</ele>
        <time>2024-08-27T16:06:31.998Z</time>
      </trkpt>
      <trkpt lat="43.44452" lon="3.63673">
        <ele>13.94</ele>
        <time>2024-08-27T16:06:47.454Z</time>
      </trkpt>
      <trkpt lat="43.44471" lon="3.63708">
        <ele>13.72</ele>
        <time>2024-08-27T16:07:02.915Z</time>
      </trkpt>
      <trkpt lat="43.44512" lon="3.63783">
        <ele>14.04</ele>
        <time>2024-08-27T16:07:18.387Z</time>
      </trkpt>
      <trkpt lat="43.44536" lon="3.63823">
        <ele>14.23</ele>
        <time>2024-08-27T16:07:33.865Z</time>
      </trkpt>
      <trkpt lat="43.44552" lon="3.63842">
        <ele>14.02</ele>
        <time>2024-08-27T16:07:49.346Z</time>
      </trkpt>
      <trkpt lat="43.44552" lon="3.63842">
        <ele>14</ele>
        <time>2024-08-27T16:08:04.827Z</time>
      </trkpt>
      <trkpt lat="43.44561" lon="3.63857">
        <ele>13.84</ele>
        <time>2024-08-27T16:08:20.311Z</time>
      </trkpt>
      <trkpt lat="43.44561" lon="3.63857">
        <ele>13.75</ele>
        <time>2024-08-27T16:08:35.795Z</time>
      </trkpt>
      <trkpt lat="43.44573" lon="3.63878">
        <ele>13.59</ele>
        <time>2024-08-27T16:08:51.282Z</time>
      </trkpt>
      <trkpt lat="43.44648" lon="3.6402">
        <ele>13.55</ele>
        <time>2024-08-27T16:09:06.789Z</time>
      </trkpt>
      <trkpt lat="43.4466" lon="3.64055">
        <ele>13.19</ele>
        <time>2024-08-27T16:09:22.301Z</time>
      </trkpt>
      <trkpt lat="43.44713" lon="3.64152">
        <ele>12.58</ele>
        <time>2024-08-27T16:09:37.827Z</time>
      </trkpt>
      <trkpt lat="43.44766" lon="3.64251">
        <ele>11.96</ele>
        <time>2024-08-27T16:09:53.367Z</time>
      </trkpt>
      <trkpt lat="43.44884" lon="3.64497">
        <ele>10.59</ele>
        <time>2024-08-27T16:10:08.941Z</time>
      </trkpt>
      <trkpt lat="43.44879" lon="3.64518">
        <ele>9.9</ele>
        <time>2024-08-27T16:10:24.518Z</time>
      </trkpt>
      <trkpt lat="43.44879" lon="3.64528">
        <ele>9.14</ele>
        <time>2024-08-27T16:10:40.096Z</time>
      </trkpt>
      <trkpt lat="43.44881" lon="3.6454">
        <ele>8.29</ele>
        <time>2024-08-27T16:10:55.676Z</time>
      </trkpt>
      <trkpt lat="43.44885" lon="3.64542">
        <ele>7.41</ele>
        <time>2024-08-27T16:11:11.256Z</time>
      </trkpt>
      <trkpt lat="43.44872" lon="3.64568">
        <ele>6.3</ele>
        <time>2024-08-27T16:11:26.840Z</time>
      </trkpt>
      <trkpt lat="43.44863" lon="3.6458">
        <ele>5.17</ele>
        <time>2024-08-27T16:11:42.426Z</time>
      </trkpt>
      <trkpt lat="43.44835" lon="3.64611">
        <ele>3.85</ele>
        <time>2024-08-27T16:11:58.017Z</time>
      </trkpt>
      <trkpt lat="43.4483" lon="3.64622">
        <ele>2.98</ele>
        <time>2024-08-27T16:12:13.610Z</time>
      </trkpt>
      <trkpt lat="43.44827" lon="3.64638">
        <ele>2.29</ele>
        <time>2024-08-27T16:12:29.205Z</time>
      </trkpt>
      <trkpt lat="43.44827" lon="3.64648">
        <ele>1.87</ele>
        <time>2024-08-27T16:12:44.801Z</time>
      </trkpt>
      <trkpt lat="43.4483" lon="3.64667">
        <ele>1.68</ele>
        <time>2024-08-27T16:13:00.399Z</time>
      </trkpt>
      <trkpt lat="43.44836" lon="3.64697">
        <ele>2.9</ele>
        <time>2024-08-27T16:13:16.001Z</time>
      </trkpt>
      <trkpt lat="43.44837" lon="3.64721">
        <ele>3.37</ele>
        <time>2024-08-27T16:13:31.606Z</time>
      </trkpt>
      <trkpt lat="43.44827" lon="3.64823">
        <ele>3.16</ele>
        <time>2024-08-27T16:13:47.223Z</time>
      </trkpt>
      <trkpt lat="43.44827" lon="3.64823">
        <ele>3.23</ele>
        <time>2024-08-27T16:14:02.840Z</time>
      </trkpt>
      <trkpt lat="43.44829" lon="3.64846">
        <ele>3.37</ele>
        <time>2024-08-27T16:14:18.460Z</time>
      </trkpt>
      <trkpt lat="43.44833" lon="3.64883">
        <ele>3.73</ele>
        <time>2024-08-27T16:14:34.084Z</time>
      </trkpt>
      <trkpt lat="43.44843" lon="3.64934">
        <ele>3.99</ele>
        <time>2024-08-27T16:14:49.714Z</time>
      </trkpt>
      <trkpt lat="43.44848" lon="3.64975">
        <ele>3.95</ele>
        <time>2024-08-27T16:15:05.349Z</time>
      </trkpt>
      <trkpt lat="43.4485" lon="3.6502">
        <ele>3.84</ele>
        <time>2024-08-27T16:15:20.989Z</time>
      </trkpt>
      <trkpt lat="43.44861" lon="3.65181">
        <ele>3.25</ele>
        <time>2024-08-27T16:15:36.648Z</time>
      </trkpt>
      <trkpt lat="43.44862" lon="3.65193">
        <ele>2.81</ele>
        <time>2024-08-27T16:15:52.309Z</time>
      </trkpt>
      <trkpt lat="43.44863" lon="3.65204">
        <ele>2.34</ele>
        <time>2024-08-27T16:16:07.971Z</time>
      </trkpt>
      <trkpt lat="43.44863" lon="3.65204">
        <ele>1.8</ele>
        <time>2024-08-27T16:16:23.633Z</time>
      </trkpt>
      <trkpt lat="43.44873" lon="3.65354">
        <ele>0.9</ele>
        <time>2024-08-27T16:16:39.312Z</time>
      </trkpt>
      <trkpt lat="43.44871" lon="3.65404">
        <ele>0.18</ele>
        <time>2024-08-27T16:16:54.997Z</time>
      </trkpt>
      <trkpt lat="43.4487" lon="3.65405">
        <ele>-0.23</ele>
        <time>2024-08-27T16:17:10.682Z</time>
      </trkpt>
      <trkpt lat="43.44871" lon="3.65405">
        <ele>-0.65</ele>
        <time>2024-08-27T16:17:26.367Z</time>
      </trkpt>
      <trkpt lat="43.44865" lon="3.65449">
        <ele>-0.57</ele>
        <time>2024-08-27T16:17:42.057Z</time>
      </trkpt>
      <trkpt lat="43.44849" lon="3.65521">
        <ele>0.54</ele>
        <time>2024-08-27T16:17:57.756Z</time>
      </trkpt>
      <trkpt lat="43.44836" lon="3.65575">
        <ele>1.25</ele>
        <time>2024-08-27T16:18:13.462Z</time>
      </trkpt>
      <trkpt lat="43.44834" lon="3.65583">
        <ele>1.79</ele>
        <time>2024-08-27T16:18:29.169Z</time>
      </trkpt>
      <trkpt lat="43.44834" lon="3.65583">
        <ele>2.37</ele>
        <time>2024-08-27T16:18:44.876Z</time>
      </trkpt>
      <trkpt lat="43.44818" lon="3.65649">
        <ele>3.4</ele>
        <time>2024-08-27T16:19:00.591Z</time>
      </trkpt>
      <trkpt lat="43.44815" lon="3.65656">
        <ele>3.93</ele>
        <time>2024-08-27T16:19:16.307Z</time>
      </trkpt>
      <trkpt lat="43.44807" lon="3.65668">
        <ele>4.33</ele>
        <time>2024-08-27T16:19:32.025Z</time>
      </trkpt>
      <trkpt lat="43.44712" lon="3.65778">
        <ele>4.35</ele>
        <time>2024-08-27T16:19:47.763Z</time>
      </trkpt>
      <trkpt lat="43.44702" lon="3.65793">
        <ele>4.42</ele>
        <time>2024-08-27T16:20:03.503Z</time>
      </trkpt>
      <trkpt lat="43.44688" lon="3.65824">
        <ele>3.96</ele>
        <time>2024-08-27T16:20:19.247Z</time>
      </trkpt>
      <trkpt lat="43.44667" lon="3.65869">
        <ele>1.32</ele>
        <time>2024-08-27T16:20:34.998Z</time>
      </trkpt>
      <trkpt lat="43.44661" lon="3.65887">
        <ele>1</ele>
        <time>2024-08-27T16:20:50.751Z</time>
      </trkpt>
      <trkpt lat="43.44663" lon="3.65918">
        <ele>0.95</ele>
        <time>2024-08-27T16:21:06.507Z</time>
      </trkpt>
      <trkpt lat="43.44665" lon="3.65948">
        <ele>1.13</ele>
        <time>2024-08-27T16:21:22.267Z</time>
      </trkpt>
      <trkpt lat="43.44671" lon="3.66041">
        <ele>1.68</ele>
        <time>2024-08-27T16:21:38.038Z</time>
      </trkpt>
      <trkpt lat="43.44674" lon="3.66045">
        <ele>2.14</ele>
        <time>2024-08-27T16:21:53.810Z</time>
      </trkpt>
      <trkpt lat="43.44676" lon="3.66045">
        <ele>2.71</ele>
        <time>2024-08-27T16:22:09.582Z</time>
      </trkpt>
      <trkpt lat="43.44709" lon="3.6603">
        <ele>3.65</ele>
        <time>2024-08-27T16:22:25.359Z</time>
      </trkpt>
      <trkpt lat="43.44742" lon="3.66016">
        <ele>4.49</ele>
        <time>2024-08-27T16:22:41.142Z</time>
      </trkpt>
      <trkpt lat="43.44775" lon="3.65997">
        <ele>5.43</ele>
        <time>2024-08-27T16:22:56.931Z</time>
      </trkpt>
      <trkpt lat="43.44792" lon="3.66077">
        <ele>6.27</ele>
        <time>2024-08-27T16:23:12.729Z</time>
      </trkpt>
      <trkpt lat="43.44796" lon="3.66095">
        <ele>7.54</ele>
        <time>2024-08-27T16:23:28.530Z</time>
      </trkpt>
      <trkpt lat="43.44895" lon="3.66073">
        <ele>7.96</ele>
        <time>2024-08-27T16:23:44.347Z</time>
      </trkpt>
      <trkpt lat="43.44902" lon="3.6607">
        <ele>8.56</ele>
        <time>2024-08-27T16:24:00.165Z</time>
      </trkpt>
      <trkpt lat="43.44925" lon="3.66148">
        <ele>9.84</ele>
        <time>2024-08-27T16:24:15.993Z</time>
      </trkpt>
      <trkpt lat="43.44937" lon="3.66187">
        <ele>10.85</ele>
        <time>2024-08-27T16:24:31.826Z</time>
      </trkpt>
      <trkpt lat="43.44942" lon="3.66202">
        <ele>11.56</ele>
        <time>2024-08-27T16:24:47.660Z</time>
      </trkpt>
      <trkpt lat="43.44954" lon="3.66242">
        <ele>12.11</ele>
        <time>2024-08-27T16:25:03.500Z</time>
      </trkpt>
      <trkpt lat="43.44966" lon="3.66262">
        <ele>12.48</ele>
        <time>2024-08-27T16:25:19.343Z</time>
      </trkpt>
      <trkpt lat="43.44969" lon="3.66266">
        <ele>12.69</ele>
        <time>2024-08-27T16:25:35.186Z</time>
      </trkpt>
      <trkpt lat="43.45002" lon="3.66308">
        <ele>14.7</ele>
        <time>2024-08-27T16:25:51.036Z</time>
      </trkpt>
      <trkpt lat="43.45026" lon="3.66343">
        <ele>15.39</ele>
        <time>2024-08-27T16:26:06.892Z</time>
      </trkpt>
      <trkpt lat="43.45042" lon="3.66369">
        <ele>15.84</ele>
        <time>2024-08-27T16:26:22.752Z</time>
      </trkpt>
      <trkpt lat="43.4507" lon="3.66416">
        <ele>16.37</ele>
        <time>2024-08-27T16:26:38.619Z</time>
      </trkpt>
      <trkpt lat="43.45079" lon="3.66428">
        <ele>16.69</ele>
        <time>2024-08-27T16:26:54.488Z</time>
      </trkpt>
      <trkpt lat="43.4509" lon="3.66444">
        <ele>16.85</ele>
        <time>2024-08-27T16:27:10.360Z</time>
      </trkpt>
      <trkpt lat="43.45109" lon="3.66486">
        <ele>16.41</ele>
        <time>2024-08-27T16:27:26.237Z</time>
      </trkpt>
      <trkpt lat="43.45121" lon="3.665">
        <ele>16.12</ele>
        <time>2024-08-27T16:27:42.117Z</time>
      </trkpt>
      <trkpt lat="43.45129" lon="3.66505">
        <ele>15.81</ele>
        <time>2024-08-27T16:27:57.998Z</time>
      </trkpt>
      <trkpt lat="43.45146" lon="3.66502">
        <ele>15.42</ele>
        <time>2024-08-27T16:28:13.882Z</time>
      </trkpt>
      <trkpt lat="43.45153" lon="3.66498">
        <ele>14.69</ele>
        <time>2024-08-27T16:28:29.767Z</time>
      </trkpt>
      <trkpt lat="43.45159" lon="3.66495">
        <ele>13.69</ele>
        <time>2024-08-27T16:28:45.653Z</time>
      </trkpt>
      <trkpt lat="43.45231" lon="3.66498">
        <ele>11.49</ele>
        <time>2024-08-27T16:29:01.551Z</time>
      </trkpt>
      <trkpt lat="43.45241" lon="3.66499">
        <ele>10.43</ele>
        <time>2024-08-27T16:29:17.450Z</time>
      </trkpt>
      <trkpt lat="43.45259" lon="3.66505">
        <ele>9.49</ele>
        <time>2024-08-27T16:29:33.352Z</time>
      </trkpt>
      <trkpt lat="43.45276" lon="3.66516">
        <ele>8.91</ele>
        <time>2024-08-27T16:29:49.257Z</time>
      </trkpt>
      <trkpt lat="43.45284" lon="3.66524">
        <ele>8.51</ele>
        <time>2024-08-27T16:30:05.164Z</time>
      </trkpt>
      <trkpt lat="43.453" lon="3.6654">
        <ele>8.56</ele>
        <time>2024-08-27T16:30:21.074Z</time>
      </trkpt>
      <trkpt lat="43.45321" lon="3.66555">
        <ele>8.42</ele>
        <time>2024-08-27T16:30:36.988Z</time>
      </trkpt>
      <trkpt lat="43.45344" lon="3.66567">
        <ele>7.84</ele>
        <time>2024-08-27T16:30:52.906Z</time>
      </trkpt>
      <trkpt lat="43.45395" lon="3.66585">
        <ele>7.09</ele>
        <time>2024-08-27T16:31:08.832Z</time>
      </trkpt>
      <trkpt lat="43.4546" lon="3.66582">
        <ele>7.08</ele>
        <time>2024-08-27T16:31:24.769Z</time>
      </trkpt>
      <trkpt lat="43.45497" lon="3.66595">
        <ele>6.69</ele>
        <time>2024-08-27T16:31:40.712Z</time>
      </trkpt>
      <trkpt lat="43.45497" lon="3.66595">
        <ele>6.34</ele>
        <time>2024-08-27T16:31:56.655Z</time>
      </trkpt>
      <trkpt lat="43.45547" lon="3.66615">
        <ele>5.68</ele>
        <time>2024-08-27T16:32:12.606Z</time>
      </trkpt>
      <trkpt lat="43.45559" lon="3.66628">
        <ele>5.32</ele>
        <time>2024-08-27T16:32:28.560Z</time>
      </trkpt>
      <trkpt lat="43.45572" lon="3.66646">
        <ele>5.06</ele>
        <time>2024-08-27T16:32:44.517Z</time>
      </trkpt>
      <trkpt lat="43.45577" lon="3.6665">
        <ele>4.53</ele>
        <time>2024-08-27T16:33:00.474Z</time>
      </trkpt>
      <trkpt lat="43.45581" lon="3.66654">
        <ele>4.22</ele>
        <time>2024-08-27T16:33:16.432Z</time>
      </trkpt>
      <trkpt lat="43.45588" lon="3.66657">
        <ele>3.79</ele>
        <time>2024-08-27T16:33:32.391Z</time>
      </trkpt>
      <trkpt lat="43.45652" lon="3.66663">
        <ele>2.93</ele>
        <time>2024-08-27T16:33:48.361Z</time>
      </trkpt>
      <trkpt lat="43.45664" lon="3.66662">
        <ele>2.36</ele>
        <time>2024-08-27T16:34:04.333Z</time>
      </trkpt>
      <trkpt lat="43.45679" lon="3.66658">
        <ele>2.05</ele>
        <time>2024-08-27T16:34:20.307Z</time>
      </trkpt>
      <trkpt lat="43.45718" lon="3.66639">
        <ele>1.57</ele>
        <time>2024-08-27T16:34:36.288Z</time>
      </trkpt>
      <trkpt lat="43.45732" lon="3.66647">
        <ele>1.14</ele>
        <time>2024-08-27T16:34:52.271Z</time>
      </trkpt>
      <trkpt lat="43.45765" lon="3.66669">
        <ele>0.7</ele>
        <time>2024-08-27T16:35:08.260Z</time>
      </trkpt>
      <trkpt lat="43.45775" lon="3.66675">
        <ele>-0.08</ele>
        <time>2024-08-27T16:35:24.251Z</time>
      </trkpt>
      <trkpt lat="43.45835" lon="3.66714">
        <ele>-1.61</ele>
        <time>2024-08-27T16:35:40.252Z</time>
      </trkpt>
      <trkpt lat="43.45862" lon="3.66733">
        <ele>-3</ele>
        <time>2024-08-27T16:35:56.258Z</time>
      </trkpt>
      <trkpt lat="43.45895" lon="3.66758">
        <ele>-3</ele>
        <time>2024-08-27T16:36:12.270Z</time>
      </trkpt>
      <trkpt lat="43.45948" lon="3.66804">
        <ele>-3</ele>
        <time>2024-08-27T16:36:28.292Z</time>
      </trkpt>
      <trkpt lat="43.46012" lon="3.66869">
        <ele>-3</ele>
        <time>2024-08-27T16:36:44.327Z</time>
      </trkpt>
      <trkpt lat="43.46135" lon="3.67024">
        <ele>-2.31</ele>
        <time>2024-08-27T16:37:00.389Z</time>
      </trkpt>
      <trkpt lat="43.46135" lon="3.67024">
        <ele>-2.31</ele>
        <time>2024-08-27T16:37:16.451Z</time>
      </trkpt>
      <trkpt lat="43.46145" lon="3.67038">
        <ele>-1.62</ele>
        <time>2024-08-27T16:37:32.515Z</time>
      </trkpt>
      <trkpt lat="43.46346" lon="3.673">
        <ele>4.89</ele>
        <time>2024-08-27T16:37:48.623Z</time>
      </trkpt>
      <trkpt lat="43.46383" lon="3.67348">
        <ele>2.65</ele>
        <time>2024-08-27T16:38:04.740Z</time>
      </trkpt>
      <trkpt lat="43.46651" lon="3.67694">
        <ele>4.17</ele>
        <time>2024-08-27T16:38:20.915Z</time>
      </trkpt>
      <trkpt lat="43.46724" lon="3.67791">
        <ele>-0.4</ele>
        <time>2024-08-27T16:38:37.107Z</time>
      </trkpt>
      <trkpt lat="43.46744" lon="3.67817">
        <ele>0.94</ele>
        <time>2024-08-27T16:38:53.303Z</time>
      </trkpt>
      <trkpt lat="43.46876" lon="3.67987">
        <ele>1.34</ele>
        <time>2024-08-27T16:39:09.528Z</time>
      </trkpt>
      <trkpt lat="43.46915" lon="3.6804">
        <ele>1.36</ele>
        <time>2024-08-27T16:39:25.762Z</time>
      </trkpt>
      <trkpt lat="43.46969" lon="3.68119">
        <ele>2.07</ele>
        <time>2024-08-27T16:39:42.008Z</time>
      </trkpt>
      <trkpt lat="43.46986" lon="3.68158">
        <ele>2.42</ele>
        <time>2024-08-27T16:39:58.260Z</time>
      </trkpt>
      <trkpt lat="43.47" lon="3.68199">
        <ele>3.16</ele>
        <time>2024-08-27T16:40:14.517Z</time>
      </trkpt>
      <trkpt lat="43.47013" lon="3.68261">
        <ele>4.06</ele>
        <time>2024-08-27T16:40:30.781Z</time>
      </trkpt>
      <trkpt lat="43.47018" lon="3.6829">
        <ele>4.96</ele>
        <time>2024-08-27T16:40:47.049Z</time>
      </trkpt>
      <trkpt lat="43.47019" lon="3.68302">
        <ele>5.6</ele>
        <time>2024-08-27T16:41:03.318Z</time>
      </trkpt>
      <trkpt lat="43.47019" lon="3.6835">
        <ele>6.17</ele>
        <time>2024-08-27T16:41:19.593Z</time>
      </trkpt>
      <trkpt lat="43.47018" lon="3.68381">
        <ele>6.37</ele>
        <time>2024-08-27T16:41:35.872Z</time>
      </trkpt>
      <trkpt lat="43.47009" lon="3.68467">
        <ele>6.42</ele>
        <time>2024-08-27T16:41:52.161Z</time>
      </trkpt>
      <trkpt lat="43.47" lon="3.68569">
        <ele>6.12</ele>
        <time>2024-08-27T16:42:08.462Z</time>
      </trkpt>
      <trkpt lat="43.4699" lon="3.68627">
        <ele>5.33</ele>
        <time>2024-08-27T16:42:24.770Z</time>
      </trkpt>
      <trkpt lat="43.46981" lon="3.68656">
        <ele>4.19</ele>
        <time>2024-08-27T16:42:41.081Z</time>
      </trkpt>
      <trkpt lat="43.46963" lon="3.68705">
        <ele>2.68</ele>
        <time>2024-08-27T16:42:57.399Z</time>
      </trkpt>
      <trkpt lat="43.46952" lon="3.68726">
        <ele>2.09</ele>
        <time>2024-08-27T16:43:13.720Z</time>
      </trkpt>
      <trkpt lat="43.46943" lon="3.68746">
        <ele>2.07</ele>
        <time>2024-08-27T16:43:30.043Z</time>
      </trkpt>
      <trkpt lat="43.4691" lon="3.68812">
        <ele>4.36</ele>
        <time>2024-08-27T16:43:46.376Z</time>
      </trkpt>
      <trkpt lat="43.46875" lon="3.68881">
        <ele>4.76</ele>
        <time>2024-08-27T16:44:02.719Z</time>
      </trkpt>
      <trkpt lat="43.46838" lon="3.68937">
        <ele>5.14</ele>
        <time>2024-08-27T16:44:19.070Z</time>
      </trkpt>
      <trkpt lat="43.46817" lon="3.68958">
        <ele>5.48</ele>
        <time>2024-08-27T16:44:35.425Z</time>
      </trkpt>
      <trkpt lat="43.46779" lon="3.6899">
        <ele>6.8</ele>
        <time>2024-08-27T16:44:51.788Z</time>
      </trkpt>
      <trkpt lat="43.46734" lon="3.69015">
        <ele>8.51</ele>
        <time>2024-08-27T16:45:08.158Z</time>
      </trkpt>
      <trkpt lat="43.46687" lon="3.69037">
        <ele>9.55</ele>
        <time>2024-08-27T16:45:24.536Z</time>
      </trkpt>
      <trkpt lat="43.46687" lon="3.69037">
        <ele>10.34</ele>
        <time>2024-08-27T16:45:40.914Z</time>
      </trkpt>
      <trkpt lat="43.46669" lon="3.69035">
        <ele>10.85</ele>
        <time>2024-08-27T16:45:57.295Z</time>
      </trkpt>
      <trkpt lat="43.46607" lon="3.69018">
        <ele>11.51</ele>
        <time>2024-08-27T16:46:13.686Z</time>
      </trkpt>
      <trkpt lat="43.46554" lon="3.68995">
        <ele>11.83</ele>
        <time>2024-08-27T16:46:30.086Z</time>
      </trkpt>
      <trkpt lat="43.46532" lon="3.68981">
        <ele>12.13</ele>
        <time>2024-08-27T16:46:46.490Z</time>
      </trkpt>
      <trkpt lat="43.46514" lon="3.68975">
        <ele>12.27</ele>
        <time>2024-08-27T16:47:02.897Z</time>
      </trkpt>
      <trkpt lat="43.46498" lon="3.68976">
        <ele>12.32</ele>
        <time>2024-08-27T16:47:19.307Z</time>
      </trkpt>
      <trkpt lat="43.46493" lon="3.68981">
        <ele>12.27</ele>
        <time>2024-08-27T16:47:35.718Z</time>
      </trkpt>
      <trkpt lat="43.46486" lon="3.68981">
        <ele>12.17</ele>
        <time>2024-08-27T16:47:52.130Z</time>
      </trkpt>
      <trkpt lat="43.46439" lon="3.68959">
        <ele>11.97</ele>
        <time>2024-08-27T16:48:08.550Z</time>
      </trkpt>
      <trkpt lat="43.46432" lon="3.68952">
        <ele>11.91</ele>
        <time>2024-08-27T16:48:24.971Z</time>
      </trkpt>
      <trkpt lat="43.46427" lon="3.68938">
        <ele>11.86</ele>
        <time>2024-08-27T16:48:41.394Z</time>
      </trkpt>
      <trkpt lat="43.46423" lon="3.6893">
        <ele>11.7</ele>
        <time>2024-08-27T16:48:57.818Z</time>
      </trkpt>
      <trkpt lat="43.46419" lon="3.68929">
        <ele>11.42</ele>
        <time>2024-08-27T16:49:14.243Z</time>
      </trkpt>
      <trkpt lat="43.46401" lon="3.68934">
        <ele>10.89</ele>
        <time>2024-08-27T16:49:30.671Z</time>
      </trkpt>
      <trkpt lat="43.46393" lon="3.68932">
        <ele>10.48</ele>
        <time>2024-08-27T16:49:47.100Z</time>
      </trkpt>
      <trkpt lat="43.46391" lon="3.68931">
        <ele>10</ele>
        <time>2024-08-27T16:50:03.529Z</time>
      </trkpt>
      <trkpt lat="43.46317" lon="3.68902">
        <ele>8.56</ele>
        <time>2024-08-27T16:50:19.970Z</time>
      </trkpt>
      <trkpt lat="43.46313" lon="3.689">
        <ele>8.84</ele>
        <time>2024-08-27T16:50:36.412Z</time>
      </trkpt>
      <trkpt lat="43.46295" lon="3.68896">
        <ele>9.18</ele>
        <time>2024-08-27T16:50:52.857Z</time>
      </trkpt>
      <trkpt lat="43.46282" lon="3.68888">
        <ele>9.58</ele>
        <time>2024-08-27T16:51:09.304Z</time>
      </trkpt>
      <trkpt lat="43.4623" lon="3.68865">
        <ele>10.42</ele>
        <time>2024-08-27T16:51:25.760Z</time>
      </trkpt>
      <trkpt lat="43.46162" lon="3.68839">
        <ele>11.32</ele>
        <time>2024-08-27T16:51:42.227Z</time>
      </trkpt>
      <trkpt lat="43.46146" lon="3.68834">
        <ele>11.9</ele>
        <time>2024-08-27T16:51:58.697Z</time>
      </trkpt>
      <trkpt lat="43.46129" lon="3.68832">
        <ele>12.36</ele>
        <time>2024-08-27T16:52:15.170Z</time>
      </trkpt>
      <trkpt lat="43.46129" lon="3.68832">
        <ele>12.65</ele>
        <time>2024-08-27T16:52:31.643Z</time>
      </trkpt>
      <trkpt lat="43.46063" lon="3.68825">
        <ele>12.92</ele>
        <time>2024-08-27T16:52:48.126Z</time>
      </trkpt>
      <trkpt lat="43.46017" lon="3.68828">
        <ele>12.96</ele>
        <time>2024-08-27T16:53:04.617Z</time>
      </trkpt>
      <trkpt lat="43.45967" lon="3.68842">
        <ele>12.81</ele>
        <time>2024-08-27T16:53:21.116Z</time>
      </trkpt>
      <trkpt lat="43.45967" lon="3.68842">
        <ele>12.73</ele>
        <time>2024-08-27T16:53:37.615Z</time>
      </trkpt>
      <trkpt lat="43.45958" lon="3.68853">
        <ele>12.62</ele>
        <time>2024-08-27T16:53:54.116Z</time>
      </trkpt>
      <trkpt lat="43.45952" lon="3.68855">
        <ele>12.45</ele>
        <time>2024-08-27T16:54:10.618Z</time>
      </trkpt>
      <trkpt lat="43.45949" lon="3.68851">
        <ele>12.29</ele>
        <time>2024-08-27T16:54:27.120Z</time>
      </trkpt>
      <trkpt lat="43.45949" lon="3.68851">
        <ele>12.09</ele>
        <time>2024-08-27T16:54:43.622Z</time>
      </trkpt>
      <trkpt lat="43.45946" lon="3.68851">
        <ele>11.84</ele>
        <time>2024-08-27T16:55:00.125Z</time>
      </trkpt>
      <trkpt lat="43.4594" lon="3.68851">
        <ele>11.52</ele>
        <time>2024-08-27T16:55:16.629Z</time>
      </trkpt>
      <trkpt lat="43.4594" lon="3.68851">
        <ele>11.15</ele>
        <time>2024-08-27T16:55:33.133Z</time>
      </trkpt>
      <trkpt lat="43.45936" lon="3.68851">
        <ele>10.67</ele>
        <time>2024-08-27T16:55:49.637Z</time>
      </trkpt>
      <trkpt lat="43.45861" lon="3.68877">
        <ele>9.84</ele>
        <time>2024-08-27T16:56:06.154Z</time>
      </trkpt>
      <trkpt lat="43.45861" lon="3.68877">
        <ele>9.44</ele>
        <time>2024-08-27T16:56:22.671Z</time>
      </trkpt>
      <trkpt lat="43.4568" lon="3.68944">
        <ele>8.93</ele>
        <time>2024-08-27T16:56:39.218Z</time>
      </trkpt>
      <trkpt lat="43.45679" lon="3.68944">
        <ele>8.65</ele>
        <time>2024-08-27T16:56:55.765Z</time>
      </trkpt>
      <trkpt lat="43.45679" lon="3.68944">
        <ele>8.29</ele>
        <time>2024-08-27T16:57:12.312Z</time>
      </trkpt>
      <trkpt lat="43.45668" lon="3.68946">
        <ele>8.53</ele>
        <time>2024-08-27T16:57:28.861Z</time>
      </trkpt>
      <trkpt lat="43.45668" lon="3.68946">
        <ele>8.87</ele>
        <time>2024-08-27T16:57:45.410Z</time>
      </trkpt>
      <trkpt lat="43.45661" lon="3.68953">
        <ele>9.29</ele>
        <time>2024-08-27T16:58:01.960Z</time>
      </trkpt>
      <trkpt lat="43.45596" lon="3.68973">
        <ele>9.95</ele>
        <time>2024-08-27T16:58:18.521Z</time>
      </trkpt>
      <trkpt lat="43.45496" lon="3.69012">
        <ele>10.36</ele>
        <time>2024-08-27T16:58:35.098Z</time>
      </trkpt>
      <trkpt lat="43.45357" lon="3.6906">
        <ele>10.83</ele>
        <time>2024-08-27T16:58:51.698Z</time>
      </trkpt>
      <trkpt lat="43.45326" lon="3.69071">
        <ele>11.53</ele>
        <time>2024-08-27T16:59:08.304Z</time>
      </trkpt>
      <trkpt lat="43.45288" lon="3.69082">
        <ele>12.04</ele>
        <time>2024-08-27T16:59:24.916Z</time>
      </trkpt>
      <trkpt lat="43.45203" lon="3.69115">
        <ele>13.22</ele>
        <time>2024-08-27T16:59:41.542Z</time>
      </trkpt>
      <trkpt lat="43.45143" lon="3.69144">
        <ele>13.03</ele>
        <time>2024-08-27T16:59:58.178Z</time>
      </trkpt>
      <trkpt lat="43.44991" lon="3.69231">
        <ele>10.91</ele>
        <time>2024-08-27T17:00:14.840Z</time>
      </trkpt>
      <trkpt lat="43.44965" lon="3.69251">
        <ele>9.11</ele>
        <time>2024-08-27T17:00:31.507Z</time>
      </trkpt>
      <trkpt lat="43.44822" lon="3.69333">
        <ele>7.71</ele>
        <time>2024-08-27T17:00:48.199Z</time>
      </trkpt>
      <trkpt lat="43.44822" lon="3.69338">
        <ele>6.44</ele>
        <time>2024-08-27T17:01:04.891Z</time>
      </trkpt>
      <trkpt lat="43.44666" lon="3.69427">
        <ele>4.78</ele>
        <time>2024-08-27T17:01:21.611Z</time>
      </trkpt>
      <trkpt lat="43.44626" lon="3.69452">
        <ele>3.66</ele>
        <time>2024-08-27T17:01:38.338Z</time>
      </trkpt>
      <trkpt lat="43.44623" lon="3.69454">
        <ele>2.75</ele>
        <time>2024-08-27T17:01:55.065Z</time>
      </trkpt>
      <trkpt lat="43.44623" lon="3.69454">
        <ele>2.03</ele>
        <time>2024-08-27T17:02:11.792Z</time>
      </trkpt>
      <trkpt lat="43.44578" lon="3.69487">
        <ele>1.34</ele>
        <time>2024-08-27T17:02:28.527Z</time>
      </trkpt>
      <trkpt lat="43.44514" lon="3.69537">
        <ele>0.97</ele>
        <time>2024-08-27T17:02:45.274Z</time>
      </trkpt>
      <trkpt lat="43.44354" lon="3.69689">
        <ele>0.85</ele>
        <time>2024-08-27T17:03:02.052Z</time>
      </trkpt>
      <trkpt lat="43.44344" lon="3.69697">
        <ele>0.86</ele>
        <time>2024-08-27T17:03:18.832Z</time>
      </trkpt>
      <trkpt lat="43.44266" lon="3.69769">
        <ele>0.79</ele>
        <time>2024-08-27T17:03:35.627Z</time>
      </trkpt>
      <trkpt lat="43.44258" lon="3.69775">
        <ele>1.66</ele>
        <time>2024-08-27T17:03:52.424Z</time>
      </trkpt>
      <trkpt lat="43.44225" lon="3.69803">
        <ele>1.9</ele>
        <time>2024-08-27T17:04:09.227Z</time>
      </trkpt>
      <trkpt lat="43.44189" lon="3.6983">
        <ele>0.14</ele>
        <time>2024-08-27T17:04:26.036Z</time>
      </trkpt>
      <trkpt lat="43.4416" lon="3.69849">
        <ele>0.41</ele>
        <time>2024-08-27T17:04:42.850Z</time>
      </trkpt>
      <trkpt lat="43.44129" lon="3.69869">
        <ele>2.08</ele>
        <time>2024-08-27T17:04:59.670Z</time>
      </trkpt>
      <trkpt lat="43.44078" lon="3.69897">
        <ele>1.66</ele>
        <time>2024-08-27T17:05:16.499Z</time>
      </trkpt>
      <trkpt lat="43.43357" lon="3.70255">
        <ele>0.14</ele>
        <time>2024-08-27T17:05:33.450Z</time>
      </trkpt>
      <trkpt lat="43.43357" lon="3.70255">
        <ele>0.08</ele>
        <time>2024-08-27T17:05:50.401Z</time>
      </trkpt>
      <trkpt lat="43.4335" lon="3.7026">
        <ele>0.31</ele>
        <time>2024-08-27T17:06:07.354Z</time>
      </trkpt>
      <trkpt lat="43.4335" lon="3.7026">
        <ele>0.4</ele>
        <time>2024-08-27T17:06:24.307Z</time>
      </trkpt>
      <trkpt lat="43.4328" lon="3.70295">
        <ele>2.43</ele>
        <time>2024-08-27T17:06:41.272Z</time>
      </trkpt>
      <trkpt lat="43.43247" lon="3.70315">
        <ele>1.98</ele>
        <time>2024-08-27T17:06:58.242Z</time>
      </trkpt>
      <trkpt lat="43.43243" lon="3.70318">
        <ele>1.28</ele>
        <time>2024-08-27T17:07:15.213Z</time>
      </trkpt>
      <trkpt lat="43.43222" lon="3.70335">
        <ele>0.76</ele>
        <time>2024-08-27T17:07:32.188Z</time>
      </trkpt>
      <trkpt lat="43.432" lon="3.70354">
        <ele>0.87</ele>
        <time>2024-08-27T17:07:49.167Z</time>
      </trkpt>
      <trkpt lat="43.43133" lon="3.70425">
        <ele>1.26</ele>
        <time>2024-08-27T17:08:06.160Z</time>
      </trkpt>
      <trkpt lat="43.4313" lon="3.70426">
        <ele>1.72</ele>
        <time>2024-08-27T17:08:23.153Z</time>
      </trkpt>
      <trkpt lat="43.43079" lon="3.70477">
        <ele>2.55</ele>
        <time>2024-08-27T17:08:40.156Z</time>
      </trkpt>
      <trkpt lat="43.43051" lon="3.70499">
        <ele>3.67</ele>
        <time>2024-08-27T17:08:57.164Z</time>
      </trkpt>
      <trkpt lat="43.42975" lon="3.70546">
        <ele>4.34</ele>
        <time>2024-08-27T17:09:14.186Z</time>
      </trkpt>
      <trkpt lat="43.42842" lon="3.70624">
        <ele>2.26</ele>
        <time>2024-08-27T17:09:31.231Z</time>
      </trkpt>
      <trkpt lat="43.42817" lon="3.70638">
        <ele>2.29</ele>
        <time>2024-08-27T17:09:48.280Z</time>
      </trkpt>
      <trkpt lat="43.42583" lon="3.70772">
        <ele>1.61</ele>
        <time>2024-08-27T17:10:05.370Z</time>
      </trkpt>
      <trkpt lat="43.42499" lon="3.70807">
        <ele>1.52</ele>
        <time>2024-08-27T17:10:22.474Z</time>
      </trkpt>
      <trkpt lat="43.42428" lon="3.70834">
        <ele>2.05</ele>
        <time>2024-08-27T17:10:39.590Z</time>
      </trkpt>
      <trkpt lat="43.42419" lon="3.70837">
        <ele>2.03</ele>
        <time>2024-08-27T17:10:56.707Z</time>
      </trkpt>
      <trkpt lat="43.4234" lon="3.70869">
        <ele>1.34</ele>
        <time>2024-08-27T17:11:13.837Z</time>
      </trkpt>
      <trkpt lat="43.42319" lon="3.70875">
        <ele>1.19</ele>
        <time>2024-08-27T17:11:30.971Z</time>
      </trkpt>
      <trkpt lat="43.42303" lon="3.70883">
        <ele>0.58</ele>
        <time>2024-08-27T17:11:48.107Z</time>
      </trkpt>
      <trkpt lat="43.42221" lon="3.70916">
        <ele>-0.17</ele>
        <time>2024-08-27T17:12:05.257Z</time>
      </trkpt>
      <trkpt lat="43.42202" lon="3.70924">
        <ele>-0.06</ele>
        <time>2024-08-27T17:12:22.410Z</time>
      </trkpt>
      <trkpt lat="43.42154" lon="3.70939">
        <ele>0.23</ele>
        <time>2024-08-27T17:12:39.571Z</time>
      </trkpt>
      <trkpt lat="43.42144" lon="3.70937">
        <ele>0.62</ele>
        <time>2024-08-27T17:12:56.734Z</time>
      </trkpt>
      <trkpt lat="43.42137" lon="3.70931">
        <ele>0.99</ele>
        <time>2024-08-27T17:13:13.898Z</time>
      </trkpt>
      <trkpt lat="43.42099" lon="3.70938">
        <ele>1.6</ele>
        <time>2024-08-27T17:13:31.068Z</time>
      </trkpt>
      <trkpt lat="43.42067" lon="3.70938">
        <ele>2.08</ele>
        <time>2024-08-27T17:13:48.243Z</time>
      </trkpt>
      <trkpt lat="43.42014" lon="3.70934">
        <ele>2.14</ele>
        <time>2024-08-27T17:14:05.427Z</time>
      </trkpt>
      <trkpt lat="43.41988" lon="3.7093">
        <ele>1.92</ele>
        <time>2024-08-27T17:14:22.615Z</time>
      </trkpt>
      <trkpt lat="43.41922" lon="3.70912">
        <ele>1.46</ele>
        <time>2024-08-27T17:14:39.814Z</time>
      </trkpt>
      <trkpt lat="43.41844" lon="3.70881">
        <ele>1.39</ele>
        <time>2024-08-27T17:14:57.026Z</time>
      </trkpt>
      <trkpt lat="43.41817" lon="3.70866">
        <ele>1.37</ele>
        <time>2024-08-27T17:15:14.242Z</time>
      </trkpt>
      <trkpt lat="43.41765" lon="3.7083">
        <ele>1.3</ele>
        <time>2024-08-27T17:15:31.468Z</time>
      </trkpt>
      <trkpt lat="43.41731" lon="3.70798">
        <ele>0.97</ele>
        <time>2024-08-27T17:15:48.700Z</time>
      </trkpt>
      <trkpt lat="43.41708" lon="3.70772">
        <ele>0.7</ele>
        <time>2024-08-27T17:16:05.937Z</time>
      </trkpt>
      <trkpt lat="43.4166" lon="3.70708">
        <ele>0.2</ele>
        <time>2024-08-27T17:16:23.185Z</time>
      </trkpt>
      <trkpt lat="43.41622" lon="3.70639">
        <ele>-0.62</ele>
        <time>2024-08-27T17:16:40.443Z</time>
      </trkpt>
      <trkpt lat="43.41599" lon="3.70593">
        <ele>-0.52</ele>
        <time>2024-08-27T17:16:57.707Z</time>
      </trkpt>
      <trkpt lat="43.41576" lon="3.70536">
        <ele>-1.09</ele>
        <time>2024-08-27T17:17:14.979Z</time>
      </trkpt>
      <trkpt lat="43.41558" lon="3.70489">
        <ele>-2.21</ele>
        <time>2024-08-27T17:17:32.257Z</time>
      </trkpt>
      <trkpt lat="43.4155" lon="3.7046">
        <ele>-2.36</ele>
        <time>2024-08-27T17:17:49.539Z</time>
      </trkpt>
      <trkpt lat="43.4153" lon="3.70369">
        <ele>-2.11</ele>
        <time>2024-08-27T17:18:06.832Z</time>
      </trkpt>
      <trkpt lat="43.41528" lon="3.70361">
        <ele>-0.75</ele>
        <time>2024-08-27T17:18:24.126Z</time>
      </trkpt>
      <trkpt lat="43.41426" lon="3.69849">
        <ele>1.54</ele>
        <time>2024-08-27T17:18:41.482Z</time>
      </trkpt>
      <trkpt lat="43.41426" lon="3.69849">
        <ele>2.01</ele>
        <time>2024-08-27T17:18:58.838Z</time>
      </trkpt>
      <trkpt lat="43.41384" lon="3.69638">
        <ele>0.64</ele>
        <time>2024-08-27T17:19:16.219Z</time>
      </trkpt>
      <trkpt lat="43.41345" lon="3.69455">
        <ele>1.13</ele>
        <time>2024-08-27T17:19:33.623Z</time>
      </trkpt>
      <trkpt lat="43.4134" lon="3.69427">
        <ele>1.11</ele>
        <time>2024-08-27T17:19:51.030Z</time>
      </trkpt>
      <trkpt lat="43.41343" lon="3.69426">
        <ele>1.07</ele>
        <time>2024-08-27T17:20:08.437Z</time>
      </trkpt>
      <trkpt lat="43.41349" lon="3.69424">
        <ele>1.04</ele>
        <time>2024-08-27T17:20:25.845Z</time>
      </trkpt>
      <trkpt lat="43.41358" lon="3.69421">
        <ele>1.04</ele>
        <time>2024-08-27T17:20:43.255Z</time>
      </trkpt>
      <trkpt lat="43.41365" lon="3.6942">
        <ele>1.14</ele>
        <time>2024-08-27T17:21:00.666Z</time>
      </trkpt>
      <trkpt lat="43.41366" lon="3.69417">
        <ele>1.22</ele>
        <time>2024-08-27T17:21:18.077Z</time>
      </trkpt>
      <trkpt lat="43.41372" lon="3.69396">
        <ele>1.32</ele>
        <time>2024-08-27T17:21:35.491Z</time>
      </trkpt>
      <trkpt lat="43.41368" lon="3.69379">
        <ele>1.4</ele>
        <time>2024-08-27T17:21:52.907Z</time>
      </trkpt>
      <trkpt lat="43.41366" lon="3.69372">
        <ele>1.65</ele>
        <time>2024-08-27T17:22:10.324Z</time>
      </trkpt>
      <trkpt lat="43.41366" lon="3.69372">
        <ele>1.47</ele>
        <time>2024-08-27T17:22:27.741Z</time>
      </trkpt>
      <trkpt lat="43.41368" lon="3.69379">
        <ele>1.4</ele>
        <time>2024-08-27T17:22:45.159Z</time>
      </trkpt>
      <trkpt lat="43.41372" lon="3.69396">
        <ele>1.32</ele>
        <time>2024-08-27T17:23:02.579Z</time>
      </trkpt>
      <trkpt lat="43.41366" lon="3.69417">
        <ele>1.22</ele>
        <time>2024-08-27T17:23:20.001Z</time>
      </trkpt>
      <trkpt lat="43.41365" lon="3.6942">
        <ele>1.14</ele>
        <time>2024-08-27T17:23:37.424Z</time>
      </trkpt>
      <trkpt lat="43.41358" lon="3.69421">
        <ele>1.04</ele>
        <time>2024-08-27T17:23:54.848Z</time>
      </trkpt>
      <trkpt lat="43.41349" lon="3.69424">
        <ele>1.04</ele>
        <time>2024-08-27T17:24:12.273Z</time>
      </trkpt>
      <trkpt lat="43.41343" lon="3.69426">
        <ele>1.07</ele>
        <time>2024-08-27T17:24:29.699Z</time>
      </trkpt>
      <trkpt lat="43.4134" lon="3.69427">
        <ele>1.11</ele>
        <time>2024-08-27T17:24:47.126Z</time>
      </trkpt>
      <trkpt lat="43.41332" lon="3.69393">
        <ele>1.18</ele>
        <time>2024-08-27T17:25:04.557Z</time>
      </trkpt>
      <trkpt lat="43.41328" lon="3.69359">
        <ele>1.21</ele>
        <time>2024-08-27T17:25:21.992Z</time>
      </trkpt>
      <trkpt lat="43.41324" lon="3.69343">
        <ele>1.2</ele>
        <time>2024-08-27T17:25:39.429Z</time>
      </trkpt>
      <trkpt lat="43.41319" lon="3.69328">
        <ele>1.21</ele>
        <time>2024-08-27T17:25:56.868Z</time>
      </trkpt>
      <trkpt lat="43.41311" lon="3.69313">
        <ele>1.25</ele>
        <time>2024-08-27T17:26:14.309Z</time>
      </trkpt>
      <trkpt lat="43.41303" lon="3.69306">
        <ele>1.39</ele>
        <time>2024-08-27T17:26:31.752Z</time>
      </trkpt>
      <trkpt lat="43.41295" lon="3.69299">
        <ele>1.58</ele>
        <time>2024-08-27T17:26:49.196Z</time>
      </trkpt>
      <trkpt lat="43.41279" lon="3.69294">
        <ele>1.85</ele>
        <time>2024-08-27T17:27:06.643Z</time>
      </trkpt>
      <trkpt lat="43.41269" lon="3.69294">
        <ele>2.12</ele>
        <time>2024-08-27T17:27:24.091Z</time>
      </trkpt>
      <trkpt lat="43.41242" lon="3.69302">
        <ele>2.33</ele>
        <time>2024-08-27T17:27:41.544Z</time>
      </trkpt>
      <trkpt lat="43.41242" lon="3.69302">
        <ele>2.63</ele>
        <time>2024-08-27T17:27:58.997Z</time>
      </trkpt>
      <trkpt lat="43.4122" lon="3.69312">
        <ele>3.03</ele>
        <time>2024-08-27T17:28:16.454Z</time>
      </trkpt>
      <trkpt lat="43.41199" lon="3.69329">
        <ele>3.64</ele>
        <time>2024-08-27T17:28:33.914Z</time>
      </trkpt>
      <trkpt lat="43.41196" lon="3.69334">
        <ele>4.03</ele>
        <time>2024-08-27T17:28:51.375Z</time>
      </trkpt>
      <trkpt lat="43.41186" lon="3.69353">
        <ele>4.32</ele>
        <time>2024-08-27T17:29:08.839Z</time>
      </trkpt>
      <trkpt lat="43.41184" lon="3.69364">
        <ele>4.52</ele>
        <time>2024-08-27T17:29:26.304Z</time>
      </trkpt>
      <trkpt lat="43.41186" lon="3.69373">
        <ele>4.7</ele>
        <time>2024-08-27T17:29:43.770Z</time>
      </trkpt>
      <trkpt lat="43.4119" lon="3.69379">
        <ele>4.83</ele>
        <time>2024-08-27T17:30:01.237Z</time>
      </trkpt>
      <trkpt lat="43.41194" lon="3.69383">
        <ele>4.91</ele>
        <time>2024-08-27T17:30:18.705Z</time>
      </trkpt>
      <trkpt lat="43.412" lon="3.69384">
        <ele>4.91</ele>
        <time>2024-08-27T17:30:36.174Z</time>
      </trkpt>
      <trkpt lat="43.41206" lon="3.69383">
        <ele>4.9</ele>
        <time>2024-08-27T17:30:53.644Z</time>
      </trkpt>
      <trkpt lat="43.41211" lon="3.69377">
        <ele>4.91</ele>
        <time>2024-08-27T17:31:11.115Z</time>
      </trkpt>
      <trkpt lat="43.41213" lon="3.69365">
        <ele>4.93</ele>
        <time>2024-08-27T17:31:28.587Z</time>
      </trkpt>
      <trkpt lat="43.41211" lon="3.69351">
        <ele>4.89</ele>
        <time>2024-08-27T17:31:46.061Z</time>
      </trkpt>
      <trkpt lat="43.41205" lon="3.69333">
        <ele>4.79</ele>
        <time>2024-08-27T17:32:03.537Z</time>
      </trkpt>
      <trkpt lat="43.41193" lon="3.69311">
        <ele>4.66</ele>
        <time>2024-08-27T17:32:21.017Z</time>
      </trkpt>
      <trkpt lat="43.41192" lon="3.69308">
        <ele>4.52</ele>
        <time>2024-08-27T17:32:38.497Z</time>
      </trkpt>
      <trkpt lat="43.41171" lon="3.69338">
        <ele>4.45</ele>
        <time>2024-08-27T17:32:55.982Z</time>
      </trkpt>
      <trkpt lat="43.41162" lon="3.69361">
        <ele>4.06</ele>
        <time>2024-08-27T17:33:13.470Z</time>
      </trkpt>
      <trkpt lat="43.41156" lon="3.69386">
        <ele>3.41</ele>
        <time>2024-08-27T17:33:30.961Z</time>
      </trkpt>
      <trkpt lat="43.41154" lon="3.69423">
        <ele>3.04</ele>
        <time>2024-08-27T17:33:48.456Z</time>
      </trkpt>
      <trkpt lat="43.41161" lon="3.6947">
        <ele>2.74</ele>
        <time>2024-08-27T17:34:05.957Z</time>
      </trkpt>
      <trkpt lat="43.41179" lon="3.69556">
        <ele>2.14</ele>
        <time>2024-08-27T17:34:23.468Z</time>
      </trkpt>
      <trkpt lat="43.41202" lon="3.69664">
        <ele>1.77</ele>
        <time>2024-08-27T17:34:40.992Z</time>
      </trkpt>
      <trkpt lat="43.4121" lon="3.69662">
        <ele>1.89</ele>
        <time>2024-08-27T17:34:58.518Z</time>
      </trkpt>
      <trkpt lat="43.41212" lon="3.69671">
        <ele>1.72</ele>
        <time>2024-08-27T17:35:16.045Z</time>
      </trkpt>
    </trkseg>
  </trk>
</gpx>